| time (UTC) | temp C | wind direction | speed KPH | gust KPH | rain 1hr cm | rain 24hr cm | rain mn cm | humidity % | barometer mb |
| 20260506070540 | 20 | 117 | 1.6 | 12.9 | 0.00 | 0.00 | 0.00 | 74 | 1011.6 |
| 20260506070512 | 20 | 225 | 1.6 | 12.9 | 0.00 | 0.00 | 0.00 | 74 | 1011.6 |
| 20260506070413 | 20 | 106 | 1.6 | 12.9 | 0.00 | 0.00 | 0.00 | 74 | 1011.7 |
| 20260506070312 | 20 | 130 | 1.6 | 12.9 | 0.00 | 0.00 | 0.00 | 74 | 1011.7 |
| 20260506070211 | 20 | 264 | 0.0 | 12.9 | 0.00 | 0.00 | 0.00 | 74 | 1011.7 |
| 20260506070110 | 20 | 172 | 0.0 | 11.3 | 0.00 | 0.00 | 0.00 | 73 | 1011.7 |
| 20260506062444 | 20 | 207 | 0.0 | 1.6 | 0.00 | 0.00 | 0.00 | 68 | 1012.4 |
| 20260506062344 | 20 | 207 | 0.0 | 1.6 | 0.00 | 0.00 | 0.00 | 68 | 1012.4 |
| 20260506062243 | 20 | 188 | 0.0 | 1.6 | 0.00 | 0.00 | 0.00 | 68 | 1012.4 |
| 20260506062143 | 20 | 188 | 0.0 | 1.6 | 0.00 | 0.00 | 0.00 | 68 | 1012.4 |
| 20260506062114 | 20 | 194 | 0.0 | 1.6 | 0.00 | 0.00 | 0.00 | 67 | 1012.5 |
| 20260506062058 | 20 | 181 | 0.0 | 1.6 | 0.00 | 0.00 | 0.00 | 67 | 1012.5 |
| 20260506061930 | 20 | 206 | 0.0 | 1.6 | 0.00 | 0.00 | 0.00 | 67 | 1012.5 |
| 20260506061924 | 20 | 163 | 0.0 | 1.6 | 0.00 | 0.00 | 0.00 | 67 | 1012.6 |
| 20260506061912 | 20 | 225 | 0.0 | 1.6 | 0.00 | 0.00 | 0.00 | 67 | 1012.5 |
| 20260506061538 | 20 | 141 | 0.0 | 1.6 | 0.00 | 0.00 | 0.00 | 67 | 1012.5 |
| 20260506061437 | 20 | 151 | 0.0 | 1.6 | 0.00 | 0.00 | 0.00 | 67 | 1012.6 |
| 20260506061336 | 20 | 152 | 0.0 | 1.6 | 0.00 | 0.00 | 0.00 | 66 | 1012.8 |
| 20260506061235 | 20 | 152 | 0.0 | 1.6 | 0.00 | 0.00 | 0.00 | 66 | 1012.8 |
| 20260506061135 | 20 | 149 | 0.0 | 1.6 | 0.00 | 0.00 | 0.00 | 66 | 1012.8 |
| 20260506061034 | 20 | 149 | 0.0 | 1.6 | 0.00 | 0.00 | 0.00 | 66 | 1012.8 |
| 20260506060932 | 20 | 149 | 0.0 | 1.6 | 0.00 | 0.00 | 0.00 | 66 | 1012.9 |
| 20260506060831 | 20 | 149 | 0.0 | 1.6 | 0.00 | 0.00 | 0.00 | 66 | 1012.9 |
| 20260506060730 | 20 | 149 | 0.0 | 1.6 | 0.00 | 0.00 | 0.00 | 66 | 1013.0 |
| 20260506060630 | 20 | 149 | 0.0 | 1.6 | 0.00 | 0.00 | 0.00 | 65 | 1013.0 |
| 20260506060540 | 20 | 150 | 0.0 | 1.6 | 0.00 | 0.00 | 0.00 | 65 | 1012.9 |
| 20260506060530 | 20 | 149 | 0.0 | 1.6 | 0.00 | 0.00 | 0.00 | 65 | 1012.9 |
| 20260506060426 | 20 | 135 | 0.0 | 1.6 | 0.00 | 0.00 | 0.00 | 65 | 1012.9 |
| 20260506060353 | 20 | 134 | 0.0 | 1.6 | 0.00 | 0.00 | 0.00 | 65 | 1012.8 |
| 20260506060344 | 20 | 135 | 0.0 | 1.6 | 0.00 | 0.00 | 0.00 | 65 | 1012.8 |
| 20260506060127 | 20 | 134 | 0.0 | 1.6 | 0.00 | 0.00 | 0.00 | 65 | 1012.8 |
| 20260506051357 | 21 | 126 | 0.0 | 4.8 | 0.00 | 0.00 | 0.00 | 59 | 1012.8 |
| 20260506051255 | 21 | 205 | 0.0 | 4.8 | 0.00 | 0.00 | 0.00 | 59 | 1012.8 |
| 20260506051156 | 21 | 214 | 0.0 | 4.8 | 0.00 | 0.00 | 0.00 | 59 | 1012.9 |
| 20260506051053 | 21 | 215 | 0.0 | 4.8 | 0.00 | 0.00 | 0.00 | 59 | 1012.9 |
| 20260506051036 | 21 | 192 | 0.0 | 4.8 | 0.00 | 0.00 | 0.00 | 59 | 1012.9 |
| 20260506051018 | 21 | 159 | 0.0 | 3.2 | 0.00 | 0.00 | 0.00 | 59 | 1012.9 |
| 20260506051010 | 21 | 207 | 0.0 | 4.8 | 0.00 | 0.00 | 0.00 | 59 | 1012.9 |
| 20260506050751 | 21 | 155 | 0.0 | 3.2 | 0.00 | 0.00 | 0.00 | 59 | 1012.8 |
| 20260506050650 | 21 | 152 | 0.0 | 3.2 | 0.00 | 0.00 | 0.00 | 59 | 1012.8 |
| 20260506050620 | 21 | 167 | 0.0 | 3.2 | 0.00 | 0.00 | 0.00 | 58 | 1012.8 |
| 20260506050600 | 21 | 159 | 0.0 | 3.2 | 0.00 | 0.00 | 0.00 | 59 | 1012.8 |
| 20260506050348 | 21 | 141 | 0.0 | 3.2 | 0.00 | 0.00 | 0.00 | 59 | 1012.9 |
| 20260506050247 | 21 | 169 | 0.0 | 3.2 | 0.00 | 0.00 | 0.00 | 58 | 1012.9 |
| 20260506050147 | 21 | 149 | 0.0 | 3.2 | 0.00 | 0.00 | 0.00 | 58 | 1012.8 |
| 20260506044941 | 21 | 155 | 0.0 | 4.8 | 0.00 | 0.00 | 0.00 | 57 | 1012.9 |
| 20260506044840 | 21 | 145 | 0.0 | 4.8 | 0.00 | 0.00 | 0.00 | 57 | 1012.8 |
| 20260506044805 | 21 | 122 | 0.0 | 4.8 | 0.00 | 0.00 | 0.00 | 57 | 1012.8 |
| 20260506044757 | 21 | 135 | 0.0 | 4.8 | 0.00 | 0.00 | 0.00 | 57 | 1012.8 |
| 20260506044549 | 21 | 227 | 1.6 | 8.0 | 0.00 | 0.00 | 0.00 | 56 | 1012.3 |
| 20260506044537 | 21 | 122 | 1.6 | 4.8 | 0.00 | 0.00 | 0.00 | 57 | 1012.7 |
| 20260506044435 | 21 | 243 | 1.6 | 4.8 | 0.00 | 0.00 | 0.00 | 57 | 1012.7 |
| 20260506044342 | 21 | 136 | 1.6 | 4.8 | 0.00 | 0.00 | 0.00 | 57 | 1012.6 |
| 20260506044336 | 21 | 130 | 1.6 | 4.8 | 0.00 | 0.00 | 0.00 | 57 | 1012.7 |
| 20260506044318 | 21 | 184 | 1.6 | 4.8 | 0.00 | 0.00 | 0.00 | 57 | 1012.7 |
| 20260506044034 | 21 | 119 | 1.6 | 4.8 | 0.00 | 0.00 | 0.00 | 57 | 1012.6 |
| 20260506043935 | 21 | 92 | 1.6 | 4.8 | 0.00 | 0.00 | 0.00 | 57 | 1012.6 |
| 20260506043836 | 21 | 250 | 1.6 | 4.8 | 0.00 | 0.00 | 0.00 | 57 | 1012.5 |
| 20260506043828 | 21 | 150 | 1.6 | 8.0 | 0.00 | 0.00 | 0.00 | 57 | 1012.4 |
| 20260506043814 | 21 | 113 | 1.6 | 4.8 | 0.00 | 0.00 | 0.00 | 57 | 1012.4 |
| 20260506043640 | 21 | 227 | 1.6 | 8.0 | 0.00 | 0.00 | 0.00 | 56 | 1012.3 |
| 20260506043435 | 21 | 144 | 1.6 | 8.0 | 0.00 | 0.00 | 0.00 | 56 | 1012.3 |
| 20260506043334 | 21 | 113 | 1.6 | 8.0 | 0.00 | 0.00 | 0.00 | 56 | 1012.3 |
| 20260506043257 | 21 | 113 | 1.6 | 8.0 | 0.00 | 0.00 | 0.00 | 56 | 1012.3 |
| 20260506043248 | 21 | 114 | 1.6 | 8.0 | 0.00 | 0.00 | 0.00 | 56 | 1012.3 |
| 20260506043036 | 21 | 138 | 1.6 | 8.0 | 0.00 | 0.00 | 0.00 | 56 | 1012.3 |
| 20260506043031 | 21 | 139 | 1.6 | 8.0 | 0.00 | 0.00 | 0.00 | 56 | 1012.3 |
| 20260506042931 | 21 | 137 | 1.6 | 8.0 | 0.00 | 0.00 | 0.00 | 56 | 1012.4 |
| 20260506042856 | 21 | 102 | 1.6 | 8.0 | 0.00 | 0.00 | 0.00 | 56 | 1012.4 |
| 20260506042847 | 21 | 215 | 1.6 | 8.0 | 0.00 | 0.00 | 0.00 | 56 | 1012.4 |
| 20260506042630 | 21 | 115 | 1.6 | 6.4 | 0.00 | 0.00 | 0.00 | 56 | 1012.4 |
| 20260506042531 | 21 | 85 | 1.6 | 6.4 | 0.00 | 0.00 | 0.00 | 56 | 1012.5 |
| 20260506042431 | 21 | 152 | 1.6 | 4.8 | 0.00 | 0.00 | 0.00 | 56 | 1012.5 |
| 20260506042331 | 21 | 113 | 1.6 | 4.8 | 0.00 | 0.00 | 0.00 | 56 | 1012.5 |
| 20260506042230 | 21 | 124 | 1.6 | 4.8 | 0.00 | 0.00 | 0.00 | 56 | 1012.5 |
| 20260506042130 | 21 | 195 | 1.6 | 4.8 | 0.00 | 0.00 | 0.00 | 56 | 1012.6 |
| 20260506042031 | 21 | 138 | 1.6 | 4.8 | 0.00 | 0.00 | 0.00 | 56 | 1012.6 |
| 20260506041954 | 21 | 207 | 1.6 | 6.4 | 0.00 | 0.00 | 0.00 | 56 | 1012.7 |
| 20260506041946 | 21 | 137 | 1.6 | 6.4 | 0.00 | 0.00 | 0.00 | 56 | 1012.7 |
| 20260506041729 | 21 | 227 | 1.6 | 6.4 | 0.00 | 0.00 | 0.00 | 55 | 1012.8 |
| 20260506041626 | 21 | 128 | 1.6 | 6.4 | 0.00 | 0.00 | 0.00 | 55 | 1012.8 |
| 20260506041533 | 21 | 107 | 0.0 | 6.4 | 0.00 | 0.00 | 0.00 | 55 | 1012.8 |
| 20260506041528 | 21 | 122 | 0.0 | 6.4 | 0.00 | 0.00 | 0.00 | 55 | 1012.8 |
| 20260506041426 | 21 | 127 | 0.0 | 6.4 | 0.00 | 0.00 | 0.00 | 55 | 1012.8 |
| 20260506041324 | 21 | 199 | 0.0 | 6.4 | 0.00 | 0.00 | 0.00 | 55 | 1012.8 |
| 20260506041304 | 21 | 195 | 0.0 | 6.4 | 0.00 | 0.00 | 0.00 | 55 | 1012.8 |
| 20260506041253 | 21 | 194 | 0.0 | 6.4 | 0.00 | 0.00 | 0.00 | 55 | 1012.8 |
| 20260506041033 | 21 | 182 | 0.0 | 6.4 | 0.00 | 0.00 | 0.00 | 55 | 1012.8 |
| 20260506041024 | 21 | 109 | 0.0 | 6.4 | 0.00 | 0.00 | 0.00 | 55 | 1012.8 |
| 20260506040925 | 21 | 178 | 0.0 | 3.2 | 0.00 | 0.00 | 0.00 | 55 | 1012.8 |
| 20260506040852 | 21 | 140 | 0.0 | 8.0 | 0.00 | 0.00 | 0.00 | 55 | 1012.8 |
| 20260506040843 | 21 | 186 | 0.0 | 8.0 | 0.00 | 0.00 | 0.00 | 55 | 1012.8 |
| 20260506040624 | 21 | 209 | 0.0 | 8.0 | 0.00 | 0.00 | 0.00 | 55 | 1012.8 |
| 20260506040557 | 21 | 132 | 1.6 | 8.0 | 0.00 | 0.00 | 0.00 | 54 | 1012.7 |
| 20260506040546 | 21 | 89 | 1.6 | 8.0 | 0.00 | 0.00 | 0.00 | 55 | 1012.7 |
| 20260506040540 | 21 | 188 | 1.6 | 8.0 | 0.00 | 0.00 | 0.00 | 55 | 1012.7 |
| 20260506040322 | 21 | 129 | 1.6 | 8.0 | 0.00 | 0.00 | 0.00 | 54 | 1012.7 |
| 20260506040225 | 21 | 119 | 1.6 | 8.0 | 0.00 | 0.00 | 0.00 | 54 | 1012.8 |
| 20260506040122 | 21 | 144 | 1.6 | 8.0 | 0.00 | 0.00 | 0.00 | 54 | 1012.9 |
| 20260506040030 | 21 | 148 | 1.6 | 8.0 | 0.00 | 0.00 | 0.00 | 54 | 1012.9 |
| 20260506040024 | 21 | 149 | 1.6 | 8.0 | 0.00 | 0.00 | 0.00 | 54 | 1012.9 |
| 20260506035920 | 21 | 168 | 1.6 | 8.0 | 0.00 | 0.00 | 0.00 | 54 | 1012.9 |
| 20260506035821 | 21 | 168 | 1.6 | 4.8 | 0.00 | 0.00 | 0.00 | 54 | 1012.9 |
| 20260506035718 | 21 | 205 | 1.6 | 4.8 | 0.00 | 0.00 | 0.00 | 54 | 1012.9 |
| 20260506035618 | 21 | 200 | 0.0 | 4.8 | 0.00 | 0.00 | 0.00 | 54 | 1012.9 |
| 20260506035530 | 21 | 205 | 0.0 | 4.8 | 0.00 | 0.00 | 0.00 | 54 | 1012.9 |
| 20260506035519 | 21 | 165 | 0.0 | 4.8 | 0.00 | 0.00 | 0.00 | 54 | 1012.9 |
| 20260506035417 | 21 | 117 | 0.0 | 3.2 | 0.00 | 0.00 | 0.00 | 54 | 1012.9 |
| 20260506035316 | 21 | 144 | 0.0 | 3.2 | 0.00 | 0.00 | 0.00 | 54 | 1012.8 |
| 20260506035214 | 21 | 186 | 0.0 | 3.2 | 0.00 | 0.00 | 0.00 | 54 | 1012.8 |
| 20260506035125 | 21 | 155 | 0.0 | 9.7 | 0.00 | 0.00 | 0.00 | 54 | 1012.8 |
| 20260506035121 | 21 | 209 | 1.6 | 9.7 | 0.00 | 0.00 | 0.00 | 54 | 1012.7 |
| 20260506035114 | 21 | 168 | 0.0 | 3.2 | 0.00 | 0.00 | 0.00 | 54 | 1012.8 |
| 20260506035107 | 21 | 160 | 0.0 | 9.7 | 0.00 | 0.00 | 0.00 | 54 | 1012.6 |
| 20260506035056 | 21 | 182 | 0.0 | 3.2 | 0.00 | 0.00 | 0.00 | 54 | 1012.8 |
| 20260506035048 | 21 | 201 | 1.6 | 3.2 | 0.00 | 0.00 | 0.00 | 54 | 1012.8 |
| 20260506034714 | 21 | 234 | 0.0 | 9.7 | 0.00 | 0.00 | 0.00 | 54 | 1012.6 |
| 20260506034655 | 21 | 221 | 1.6 | 9.7 | 0.00 | 0.00 | 0.00 | 53 | 1012.7 |
| 20260506034644 | 21 | 198 | 0.0 | 9.7 | 0.00 | 0.00 | 0.00 | 54 | 1012.6 |
| 20260506034515 | 21 | 199 | 0.0 | 9.7 | 0.00 | 0.00 | 0.00 | 54 | 1012.6 |
| 20260506034413 | 21 | 122 | 0.0 | 9.7 | 0.00 | 0.00 | 0.00 | 54 | 1012.6 |
| 20260506034312 | 21 | 169 | 1.6 | 9.7 | 0.00 | 0.00 | 0.00 | 53 | 1012.6 |
| 20260506034210 | 21 | 171 | 1.6 | 9.7 | 0.00 | 0.00 | 0.00 | 54 | 1012.6 |
| 20260506034144 | 21 | 169 | 1.6 | 9.7 | 0.00 | 0.00 | 0.00 | 53 | 1012.7 |
| 20260506034011 | 21 | 159 | 0.0 | 9.7 | 0.00 | 0.00 | 0.00 | 53 | 1012.7 |
| 20260506033910 | 21 | 140 | 0.0 | 4.8 | 0.00 | 0.00 | 0.00 | 53 | 1012.7 |
| 20260506033808 | 21 | 136 | 0.0 | 4.8 | 0.00 | 0.00 | 0.00 | 53 | 1012.8 |
| 20260506033706 | 21 | 200 | 0.0 | 3.2 | 0.00 | 0.00 | 0.00 | 53 | 1012.8 |
| 20260506033605 | 21 | 164 | 0.0 | 3.2 | 0.00 | 0.00 | 0.00 | 53 | 1012.8 |
| 20260506033536 | 21 | 137 | 0.0 | 3.2 | 0.00 | 0.00 | 0.00 | 53 | 1012.6 |
| 20260506033505 | 21 | 159 | 0.0 | 3.2 | 0.00 | 0.00 | 0.00 | 53 | 1012.8 |
| 20260506033429 | 21 | 92 | 0.0 | 3.2 | 0.00 | 0.00 | 0.00 | 53 | 1012.7 |
| 20260506033420 | 21 | 135 | 0.0 | 3.2 | 0.00 | 0.00 | 0.00 | 54 | 1012.7 |
| 20260506033204 | 21 | 137 | 0.0 | 3.2 | 0.00 | 0.00 | 0.00 | 53 | 1012.6 |
| 20260506033142 | 21 | 138 | 0.0 | 3.2 | 0.00 | 0.00 | 0.00 | 53 | 1012.6 |
| 20260506033005 | 21 | 120 | 0.0 | 3.2 | 0.00 | 0.00 | 0.00 | 53 | 1012.6 |
| 20260506032904 | 21 | 146 | 0.0 | 4.8 | 0.00 | 0.00 | 0.00 | 53 | 1012.6 |
| 20260506032802 | 21 | 99 | 0.0 | 4.8 | 0.00 | 0.00 | 0.00 | 54 | 1012.6 |
| 20260506032703 | 21 | 163 | 0.0 | 4.8 | 0.00 | 0.00 | 0.00 | 54 | 1012.6 |
| 20260506032602 | 21 | 222 | 0.0 | 4.8 | 0.00 | 0.00 | 0.00 | 54 | 1012.7 |
| 20260506032533 | 21 | 227 | 0.0 | 4.8 | 0.00 | 0.00 | 0.00 | 54 | 1012.7 |
| 20260506032527 | 21 | 223 | 0.0 | 4.8 | 0.00 | 0.00 | 0.00 | 54 | 1012.7 |
| 20260506032519 | 21 | 223 | 0.0 | 4.8 | 0.00 | 0.00 | 0.00 | 54 | 1012.7 |
| 20260506032305 | 21 | 206 | 0.0 | 4.8 | 0.00 | 0.00 | 0.00 | 54 | 1012.8 |
| 20260506032202 | 21 | 229 | 0.0 | 4.8 | 0.00 | 0.00 | 0.00 | 53 | 1012.7 |
| 20260506032133 | 21 | 223 | 0.0 | 4.8 | 0.00 | 0.00 | 0.00 | 53 | 1012.8 |
| 20260506032122 | 21 | 234 | 0.0 | 4.8 | 0.00 | 0.00 | 0.00 | 54 | 1012.8 |
| 20260506032109 | 21 | 223 | 0.0 | 4.8 | 0.00 | 0.00 | 0.00 | 54 | 1012.8 |
| 20260506031900 | 21 | 153 | 0.0 | 3.2 | 0.00 | 0.00 | 0.00 | 53 | 1012.7 |
| 20260506031800 | 21 | 178 | 0.0 | 3.2 | 0.00 | 0.00 | 0.00 | 53 | 1012.8 |
| 20260506031702 | 21 | 195 | 0.0 | 3.2 | 0.00 | 0.00 | 0.00 | 53 | 1012.8 |
| 20260506031601 | 21 | 122 | 0.0 | 3.2 | 0.00 | 0.00 | 0.00 | 53 | 1012.7 |
| 20260506031526 | 21 | 119 | 0.0 | 3.2 | 0.00 | 0.00 | 0.00 | 53 | 1012.7 |
| 20260506031501 | 21 | 122 | 0.0 | 3.2 | 0.00 | 0.00 | 0.00 | 53 | 1012.8 |
| 20260506031401 | 21 | 241 | 0.0 | 3.2 | 0.00 | 0.00 | 0.00 | 53 | 1012.9 |
| 20260506031300 | 21 | 186 | 0.0 | 3.2 | 0.00 | 0.00 | 0.00 | 53 | 1012.9 |
| 20260506031201 | 21 | 203 | 0.0 | 3.2 | 0.00 | 0.00 | 0.00 | 53 | 1012.9 |
| 20260506031100 | 21 | 205 | 0.0 | 3.2 | 0.00 | 0.00 | 0.00 | 53 | 1012.9 |
| 20260506031026 | 21 | 201 | 0.0 | 3.2 | 0.00 | 0.00 | 0.00 | 53 | 1012.9 |
| 20260506031000 | 21 | 133 | 0.0 | 3.2 | 0.00 | 0.00 | 0.00 | 53 | 1012.9 |
| 20260506030900 | 21 | 163 | 0.0 | 1.6 | 0.00 | 0.00 | 0.00 | 53 | 1012.9 |
| 20260506030801 | 21 | 129 | 0.0 | 8.0 | 0.00 | 0.00 | 0.00 | 53 | 1012.9 |
| 20260506030701 | 21 | 214 | 0.0 | 8.0 | 0.00 | 0.00 | 0.00 | 53 | 1013.0 |
| 20260506030600 | 21 | 214 | 1.6 | 8.0 | 0.00 | 0.00 | 0.00 | 53 | 1013.0 |
| 20260506030527 | 21 | 205 | 1.6 | 8.0 | 0.00 | 0.00 | 0.00 | 53 | 1013.0 |
| 20260506030501 | 21 | 205 | 1.6 | 8.0 | 0.00 | 0.00 | 0.00 | 53 | 1013.0 |
| 20260506030400 | 21 | 202 | 1.6 | 8.0 | 0.00 | 0.00 | 0.00 | 53 | 1013.0 |
| 20260506030300 | 21 | 202 | 1.6 | 8.0 | 0.00 | 0.00 | 0.00 | 53 | 1013.0 |
| 20260506030201 | 21 | 210 | 1.6 | 8.0 | 0.00 | 0.00 | 0.00 | 53 | 1013.0 |
| 20260506030138 | 21 | 159 | 1.6 | 8.0 | 0.00 | 0.00 | 0.00 | 53 | 1013.0 |
| 20260506030132 | 21 | 149 | 1.6 | 6.4 | 0.00 | 0.00 | 0.00 | 53 | 1012.9 |
| 20260506030123 | 21 | 150 | 1.6 | 8.0 | 0.00 | 0.00 | 0.00 | 53 | 1012.9 |
| 20260506030109 | 21 | 132 | 1.6 | 8.0 | 0.00 | 0.00 | 0.00 | 53 | 1012.9 |
| 20260506025900 | 21 | 159 | 1.6 | 8.0 | 0.00 | 0.00 | 0.00 | 52 | 1013.0 |
| 20260506025803 | 21 | 180 | 1.6 | 6.4 | 0.00 | 0.00 | 0.00 | 53 | 1013.0 |
| 20260506025756 | 21 | 201 | 1.6 | 6.4 | 0.00 | 0.00 | 0.00 | 53 | 1012.9 |
| 20260506025740 | 21 | 134 | 1.6 | 6.4 | 0.00 | 0.00 | 0.00 | 53 | 1012.9 |
| 20260506025723 | 21 | 177 | 1.6 | 6.4 | 0.00 | 0.00 | 0.00 | 53 | 1012.9 |
| 20260506025425 | 21 | 250 | 1.6 | 6.4 | 0.00 | 0.00 | 0.00 | 53 | 1013.0 |
| 20260506025416 | 21 | 223 | 1.6 | 6.4 | 0.00 | 0.00 | 0.00 | 53 | 1012.9 |
| 20260506025203 | 21 | 226 | 0.0 | 6.4 | 0.00 | 0.00 | 0.00 | 52 | 1012.9 |
| 20260506025157 | 21 | 190 | 1.6 | 4.8 | 0.00 | 0.00 | 0.00 | 53 | 1013.0 |
| 20260506025152 | 21 | 237 | 0.0 | 4.8 | 0.00 | 0.00 | 0.00 | 53 | 1012.9 |
| 20260506025146 | 21 | 150 | 1.6 | 4.8 | 0.00 | 0.00 | 0.00 | 53 | 1012.9 |
| 20260506025141 | 21 | 208 | 0.0 | 4.8 | 0.00 | 0.00 | 0.00 | 53 | 1012.9 |
| 20260506025128 | 21 | 134 | 0.0 | 4.8 | 0.00 | 0.00 | 0.00 | 53 | 1013.0 |
| 20260506025115 | 21 | 196 | 0.0 | 4.8 | 0.00 | 0.00 | 0.00 | 53 | 1013.0 |
| 20260506024950 | 21 | 144 | 1.6 | 4.8 | 0.00 | 0.00 | 0.00 | 53 | 1013.0 |
| 20260506024526 | 21 | 217 | 0.0 | 4.8 | 0.00 | 0.00 | 0.00 | 53 | 1012.9 |
| 20260506024500 | 21 | 164 | 1.6 | 4.8 | 0.00 | 0.00 | 0.00 | 53 | 1012.9 |
| 20260506024424 | 21 | 206 | 1.6 | 6.4 | 0.00 | 0.00 | 0.00 | 54 | 1012.8 |
| 20260506024417 | 21 | 145 | 1.6 | 6.4 | 0.00 | 0.00 | 0.00 | 53 | 1012.9 |
| 20260506024226 | 21 | 221 | 0.0 | 6.4 | 0.00 | 0.00 | 0.00 | 53 | 1012.8 |
| 20260506024216 | 21 | 160 | 1.6 | 6.4 | 0.00 | 0.00 | 0.00 | 53 | 1012.8 |
| 20260506024026 | 21 | 221 | 0.0 | 6.4 | 0.00 | 0.00 | 0.00 | 53 | 1012.8 |
| 20260506024000 | 22 | 207 | 0.0 | 6.4 | 0.00 | 0.00 | 0.00 | 53 | 1012.8 |
| 20260506023900 | 22 | 128 | 0.0 | 6.4 | 0.00 | 0.00 | 0.00 | 53 | 1012.7 |
| 20260506023800 | 22 | 191 | 0.0 | 6.4 | 0.00 | 0.00 | 0.00 | 53 | 1012.8 |
| 20260506023728 | 22 | 150 | 0.0 | 6.4 | 0.00 | 0.00 | 0.00 | 53 | 1012.8 |
| 20260506023717 | 22 | 213 | 0.0 | 6.4 | 0.00 | 0.00 | 0.00 | 53 | 1012.8 |
| 20260506023533 | 22 | 219 | 0.0 | 4.8 | 0.00 | 0.00 | 0.00 | 52 | 1012.8 |
| 20260506023527 | 22 | 167 | 0.0 | 6.4 | 0.00 | 0.00 | 0.00 | 53 | 1012.8 |
| 20260506023518 | 22 | 206 | 0.0 | 6.4 | 0.00 | 0.00 | 0.00 | 53 | 1012.8 |
| 20260506023301 | 22 | 225 | 0.0 | 4.8 | 0.00 | 0.00 | 0.00 | 53 | 1012.8 |
| 20260506023201 | 22 | 157 | 0.0 | 4.8 | 0.00 | 0.00 | 0.00 | 53 | 1012.8 |
| 20260506023133 | 22 | 136 | 0.0 | 4.8 | 0.00 | 0.00 | 0.00 | 53 | 1012.8 |
| 20260506023122 | 22 | 213 | 0.0 | 4.8 | 0.00 | 0.00 | 0.00 | 53 | 1012.8 |
| 20260506023109 | 22 | 214 | 0.0 | 4.8 | 0.00 | 0.00 | 0.00 | 53 | 1012.8 |
| 20260506022900 | 22 | 145 | 0.0 | 4.8 | 0.00 | 0.00 | 0.00 | 53 | 1012.9 |
| 20260506022807 | 22 | 150 | 0.0 | 1.6 | 0.00 | 0.00 | 0.00 | 53 | 1012.9 |
| 20260506022800 | 22 | 184 | 0.0 | 4.8 | 0.00 | 0.00 | 0.00 | 53 | 1012.9 |
| 20260506022752 | 22 | 150 | 0.0 | 1.6 | 0.00 | 0.00 | 0.00 | 53 | 1012.9 |
| 20260506022738 | 22 | 153 | 0.0 | 4.8 | 0.00 | 0.00 | 0.00 | 53 | 1012.9 |
| 20260506022608 | 22 | 150 | 0.0 | 1.6 | 0.00 | 0.00 | 0.00 | 53 | 1012.9 |
| 20260506022400 | 22 | 127 | 0.0 | 1.6 | 0.00 | 0.00 | 0.00 | 53 | 1012.9 |
| 20260506022300 | 22 | 127 | 0.0 | 1.6 | 0.00 | 0.00 | 0.00 | 53 | 1012.9 |
| 20260506022202 | 22 | 126 | 0.0 | 1.6 | 0.00 | 0.00 | 0.00 | 53 | 1012.9 |
| 20260506022137 | 22 | 190 | 0.0 | 1.6 | 0.00 | 0.00 | 0.00 | 53 | 1012.9 |
| 20260506022130 | 22 | 293 | 0.0 | 1.6 | 0.00 | 0.00 | 0.00 | 53 | 1012.8 |
| 20260506022108 | 22 | 190 | 0.0 | 1.6 | 0.00 | 0.00 | 0.00 | 53 | 1012.9 |
| 20260506021900 | 22 | 190 | 0.0 | 1.6 | 0.00 | 0.00 | 0.00 | 53 | 1012.9 |
| 20260506021800 | 22 | 240 | 0.0 | 1.6 | 0.00 | 0.00 | 0.00 | 53 | 1012.8 |
| 20260506021700 | 22 | 240 | 0.0 | 1.6 | 0.00 | 0.00 | 0.00 | 53 | 1012.8 |
| 20260506021642 | 22 | 281 | 0.0 | 1.6 | 0.00 | 0.00 | 0.00 | 52 | 1012.8 |
| 20260506021525 | 22 | 296 | 0.0 | 1.6 | 0.00 | 0.00 | 0.00 | 52 | 1012.8 |
| 20260506021516 | 22 | 294 | 0.0 | 1.6 | 0.00 | 0.00 | 0.00 | 53 | 1012.8 |
| 20260506021300 | 22 | 161 | 0.0 | 6.4 | 0.00 | 0.00 | 0.00 | 52 | 1012.8 |
| 20260506021201 | 22 | 164 | 0.0 | 6.4 | 0.00 | 0.00 | 0.00 | 52 | 1012.8 |
| 20260506021100 | 22 | 167 | 0.0 | 6.4 | 0.00 | 0.00 | 0.00 | 52 | 1012.8 |
| 20260506021026 | 22 | 163 | 0.0 | 6.4 | 0.00 | 0.00 | 0.00 | 52 | 1012.8 |
| 20260506021005 | 22 | 178 | 1.6 | 6.4 | 0.00 | 0.00 | 0.00 | 52 | 1012.6 |
| 20260506021000 | 22 | 158 | 0.0 | 6.4 | 0.00 | 0.00 | 0.00 | 52 | 1012.8 |
| 20260506020951 | 22 | 257 | 0.0 | 6.4 | 0.00 | 0.00 | 0.00 | 52 | 1012.7 |
| 20260506020945 | 22 | 175 | 0.0 | 6.4 | 0.00 | 0.00 | 0.00 | 52 | 1012.6 |
| 20260506020934 | 22 | 201 | 0.0 | 6.4 | 0.00 | 0.00 | 0.00 | 52 | 1012.8 |
| 20260506020918 | 22 | 165 | 0.0 | 6.4 | 0.00 | 0.00 | 0.00 | 52 | 1012.7 |
| 20260506020640 | 22 | 155 | 1.6 | 6.4 | 0.00 | 0.00 | 0.00 | 52 | 1012.7 |
| 20260506020627 | 22 | 175 | 1.6 | 6.4 | 0.00 | 0.00 | 0.00 | 52 | 1012.7 |
| 20260506020301 | 22 | 159 | 0.0 | 4.8 | 0.00 | 0.00 | 0.00 | 52 | 1012.6 |
| 20260506020200 | 22 | 115 | 0.0 | 4.8 | 0.00 | 0.00 | 0.00 | 52 | 1012.5 |
| 20260506020024 | 22 | 121 | 1.6 | 4.8 | 0.00 | 0.00 | 0.00 | 51 | 1012.5 |
| 20260506020000 | 22 | 118 | 1.6 | 4.8 | 0.00 | 0.00 | 0.00 | 51 | 1012.5 |
| 20260506015901 | 22 | 205 | 0.0 | 4.8 | 0.00 | 0.00 | 0.00 | 51 | 1012.5 |
| 20260506015759 | 22 | 218 | 0.0 | 4.8 | 0.00 | 0.00 | 0.00 | 51 | 1012.5 |
| 20260506015700 | 22 | 256 | 1.6 | 4.8 | 0.00 | 0.00 | 0.00 | 51 | 1012.5 |
| 20260506015634 | 22 | 121 | 0.0 | 4.8 | 0.00 | 0.00 | 0.00 | 51 | 1012.4 |
| 20260506015622 | 22 | 144 | 0.0 | 4.8 | 0.00 | 0.00 | 0.00 | 51 | 1012.5 |
| 20260506015609 | 22 | 118 | 0.0 | 4.8 | 0.00 | 0.00 | 0.00 | 51 | 1012.5 |
| 20260506015400 | 22 | 110 | 0.0 | 4.8 | 0.00 | 0.00 | 0.00 | 51 | 1012.4 |
| 20260506015300 | 22 | 121 | 0.0 | 4.8 | 0.00 | 0.00 | 0.00 | 51 | 1012.4 |
| 20260506015226 | 22 | 117 | 0.0 | 4.8 | 0.00 | 0.00 | 0.00 | 51 | 1012.4 |
| 20260506015217 | 22 | 119 | 0.0 | 4.8 | 0.00 | 0.00 | 0.00 | 51 | 1012.4 |
| 20260506015034 | 22 | 176 | 0.0 | 4.8 | 0.00 | 0.00 | 0.00 | 51 | 1012.4 |
| 20260506015027 | 22 | 111 | 0.0 | 4.8 | 0.00 | 0.00 | 0.00 | 51 | 1012.4 |
| 20260506015018 | 22 | 114 | 0.0 | 4.8 | 0.00 | 0.00 | 0.00 | 51 | 1012.4 |
| 20260506014800 | 22 | 199 | 0.0 | 4.8 | 0.00 | 0.00 | 0.00 | 51 | 1012.5 |
| 20260506014700 | 22 | 163 | 0.0 | 4.8 | 0.00 | 0.00 | 0.00 | 51 | 1012.5 |
| 20260506014600 | 22 | 240 | 0.0 | 4.8 | 0.00 | 0.00 | 0.00 | 51 | 1012.5 |
| 20260506014524 | 22 | 240 | 0.0 | 4.8 | 0.00 | 0.00 | 0.00 | 51 | 1012.5 |
| 20260506014500 | 22 | 133 | 0.0 | 4.8 | 0.00 | 0.00 | 0.00 | 51 | 1012.5 |
| 20260506014359 | 22 | 249 | 0.0 | 4.8 | 0.00 | 0.00 | 0.00 | 51 | 1012.5 |
| 20260506014259 | 22 | 141 | 0.0 | 4.8 | 0.00 | 0.00 | 0.00 | 51 | 1012.5 |
| 20260506014158 | 22 | 152 | 0.0 | 4.8 | 0.00 | 0.00 | 0.00 | 51 | 1012.5 |
| 20260506014102 | 22 | 237 | 0.0 | 3.2 | 0.00 | 0.00 | 0.00 | 52 | 1012.5 |
| 20260506014057 | 22 | 233 | 0.0 | 4.8 | 0.00 | 0.00 | 0.00 | 52 | 1012.5 |
| 20260506014049 | 22 | 146 | 0.0 | 3.2 | 0.00 | 0.00 | 0.00 | 52 | 1012.6 |
| 20260506014038 | 22 | 108 | 0.0 | 3.2 | 0.00 | 0.00 | 0.00 | 52 | 1012.5 |
| 20260506014028 | 22 | 223 | 0.0 | 3.2 | 0.00 | 0.00 | 0.00 | 52 | 1012.5 |
| 20260506013655 | 22 | 222 | 0.0 | 3.2 | 0.00 | 0.00 | 0.00 | 52 | 1012.5 |
| 20260506013554 | 22 | 217 | 0.0 | 3.2 | 0.00 | 0.00 | 0.00 | 52 | 1012.5 |
| 20260506013530 | 22 | 136 | 0.0 | 3.2 | 0.00 | 0.00 | 0.00 | 52 | 1012.7 |
| 20260506013525 | 22 | 126 | 0.0 | 3.2 | 0.00 | 0.00 | 0.00 | 52 | 1012.5 |
| 20260506013451 | 22 | 129 | 0.0 | 3.2 | 0.00 | 0.00 | 0.00 | 52 | 1012.6 |
| 20260506013352 | 22 | 164 | 0.0 | 3.2 | 0.00 | 0.00 | 0.00 | 52 | 1012.7 |
| 20260506013319 | 22 | 136 | 0.0 | 3.2 | 0.00 | 0.00 | 0.00 | 52 | 1012.7 |
| 20260506013310 | 22 | 207 | 0.0 | 3.2 | 0.00 | 0.00 | 0.00 | 52 | 1012.7 |
| 20260506013136 | 22 | 136 | 0.0 | 3.2 | 0.00 | 0.00 | 0.00 | 52 | 1012.7 |
| 20260506012952 | 22 | 136 | 0.0 | 3.2 | 0.00 | 0.00 | 0.00 | 52 | 1012.7 |
| 20260506012851 | 22 | 136 | 0.0 | 3.2 | 0.00 | 0.00 | 0.00 | 52 | 1012.7 |
| 20260506012751 | 22 | 136 | 0.0 | 3.2 | 0.00 | 0.00 | 0.00 | 52 | 1012.7 |
| 20260506012716 | 22 | 215 | 1.6 | 3.2 | 0.00 | 0.00 | 0.00 | 52 | 1012.7 |
| 20260506012712 | 22 | 195 | 1.6 | 4.8 | 0.00 | 0.00 | 0.00 | 51 | 1012.7 |
| 20260506012707 | 22 | 148 | 1.6 | 4.8 | 0.00 | 0.00 | 0.00 | 51 | 1012.7 |
| 20260506012658 | 22 | 150 | 0.0 | 3.2 | 0.00 | 0.00 | 0.00 | 52 | 1012.7 |
| 20260506012631 | 22 | 226 | 0.0 | 3.2 | 0.00 | 0.00 | 0.00 | 52 | 1012.7 |
| 20260506012147 | 22 | 156 | 0.0 | 4.8 | 0.00 | 0.00 | 0.00 | 51 | 1012.7 |
| 20260506012045 | 22 | 209 | 0.0 | 4.8 | 0.00 | 0.00 | 0.00 | 51 | 1012.6 |
| 20260506012024 | 22 | 210 | 0.0 | 4.8 | 0.00 | 0.00 | 0.00 | 51 | 1012.6 |
| 20260506011942 | 22 | 205 | 0.0 | 4.8 | 0.00 | 0.00 | 0.00 | 51 | 1012.6 |
| 20260506011907 | 22 | 128 | 0.0 | 4.8 | 0.00 | 0.00 | 0.00 | 51 | 1012.6 |
| 20260506011859 | 22 | 128 | 0.0 | 4.8 | 0.00 | 0.00 | 0.00 | 52 | 1012.6 |
| 20260506011706 | 22 | 201 | 0.0 | 4.8 | 0.00 | 0.00 | 0.00 | 51 | 1012.6 |
| 20260506011658 | 22 | 128 | 0.0 | 4.8 | 0.00 | 0.00 | 0.00 | 52 | 1012.6 |
| 20260506011525 | 22 | 234 | 0.0 | 4.8 | 0.00 | 0.00 | 0.00 | 51 | 1012.6 |
| 20260506011442 | 22 | 165 | 0.0 | 4.8 | 0.00 | 0.00 | 0.00 | 51 | 1012.6 |
| 20260506011342 | 22 | 211 | 0.0 | 3.2 | 0.00 | 0.00 | 0.00 | 52 | 1012.6 |
| 20260506011308 | 22 | 221 | 0.0 | 3.2 | 0.00 | 0.00 | 0.00 | 51 | 1012.4 |
| 20260506011259 | 22 | 211 | 0.0 | 3.2 | 0.00 | 0.00 | 0.00 | 51 | 1012.5 |
| 20260506011041 | 22 | 210 | 0.0 | 3.2 | 0.00 | 0.00 | 0.00 | 51 | 1012.5 |
| 20260506011023 | 22 | 210 | 0.0 | 3.2 | 0.00 | 0.00 | 0.00 | 52 | 1012.5 |
| 20260506010940 | 22 | 167 | 0.0 | 3.2 | 0.00 | 0.00 | 0.00 | 51 | 1012.5 |
| 20260506010838 | 22 | 135 | 0.0 | 3.2 | 0.00 | 0.00 | 0.00 | 52 | 1012.4 |
| 20260506010744 | 22 | 260 | 0.0 | 4.8 | 0.00 | 0.00 | 0.00 | 51 | 1012.3 |
| 20260506010737 | 22 | 199 | 0.0 | 3.2 | 0.00 | 0.00 | 0.00 | 52 | 1012.4 |
| 20260506010720 | 22 | 199 | 0.0 | 4.8 | 0.00 | 0.00 | 0.00 | 51 | 1012.3 |
| 20260506010604 | 22 | 169 | 0.0 | 4.8 | 0.00 | 0.00 | 0.00 | 51 | 1012.3 |
| 20260506010558 | 22 | 191 | 0.0 | 4.8 | 0.00 | 0.00 | 0.00 | 51 | 1012.2 |
| 20260506010550 | 22 | 200 | 0.0 | 4.8 | 0.00 | 0.00 | 0.00 | 51 | 1012.3 |
| 20260506010539 | 22 | 199 | 0.0 | 4.8 | 0.00 | 0.00 | 0.00 | 51 | 1012.3 |
| 20260506010528 | 22 | 134 | 0.0 | 4.8 | 0.00 | 0.00 | 0.00 | 51 | 1012.3 |
| 20260506010022 | 22 | 178 | 0.0 | 4.8 | 0.00 | 0.00 | 0.00 | 52 | 1012.2 |
| 20260506005932 | 22 | 209 | 1.6 | 4.8 | 0.00 | 0.00 | 0.00 | 51 | 1012.2 |
| 20260506005831 | 22 | 233 | 0.0 | 4.8 | 0.00 | 0.00 | 0.00 | 51 | 1012.1 |
| 20260506005729 | 22 | 158 | 0.0 | 4.8 | 0.00 | 0.00 | 0.00 | 51 | 1012.1 |
| 20260506005630 | 22 | 191 | 0.0 | 3.2 | 0.00 | 0.00 | 0.00 | 52 | 1012.1 |
| 20260506005530 | 22 | 134 | 0.0 | 3.2 | 0.00 | 0.00 | 0.00 | 51 | 1012.2 |
| 20260506005521 | 22 | 135 | 0.0 | 3.2 | 0.00 | 0.00 | 0.00 | 51 | 1012.1 |
| 20260506005428 | 22 | 165 | 0.0 | 3.2 | 0.00 | 0.00 | 0.00 | 51 | 1012.1 |
| 20260506005328 | 22 | 205 | 0.0 | 3.2 | 0.00 | 0.00 | 0.00 | 51 | 1012.2 |
| 20260506005228 | 22 | 209 | 0.0 | 3.2 | 0.00 | 0.00 | 0.00 | 51 | 1012.3 |
| 20260506005128 | 22 | 233 | 0.0 | 3.2 | 0.00 | 0.00 | 0.00 | 51 | 1012.2 |
| 20260506005035 | 22 | 141 | 0.0 | 4.8 | 0.00 | 0.00 | 0.00 | 51 | 1012.2 |
| 20260506005030 | 22 | 111 | 0.0 | 3.2 | 0.00 | 0.00 | 0.00 | 51 | 1012.2 |
| 20260506005021 | 22 | 110 | 0.0 | 3.2 | 0.00 | 0.00 | 0.00 | 51 | 1012.2 |
| 20260506004927 | 22 | 207 | 0.0 | 3.2 | 0.00 | 0.00 | 0.00 | 51 | 1012.2 |
| 20260506004826 | 22 | 203 | 0.0 | 4.8 | 0.00 | 0.00 | 0.00 | 51 | 1012.2 |
| 20260506004727 | 22 | 213 | 0.0 | 4.8 | 0.00 | 0.00 | 0.00 | 51 | 1012.2 |
| 20260506004655 | 22 | 153 | 0.0 | 4.8 | 0.00 | 0.00 | 0.00 | 51 | 1012.3 |
| 20260506004646 | 22 | 177 | 0.0 | 4.8 | 0.00 | 0.00 | 0.00 | 51 | 1012.2 |
| 20260506004629 | 22 | 141 | 0.0 | 4.8 | 0.00 | 0.00 | 0.00 | 51 | 1012.2 |
| 20260506004452 | 22 | 167 | 0.0 | 4.8 | 0.00 | 0.00 | 0.00 | 51 | 1012.2 |
| 20260506004443 | 22 | 156 | 0.0 | 4.8 | 0.00 | 0.00 | 0.00 | 51 | 1012.2 |
| 20260506004319 | 22 | 153 | 0.0 | 4.8 | 0.00 | 0.00 | 0.00 | 51 | 1012.3 |
| 20260506004305 | 22 | 161 | 0.0 | 4.8 | 0.00 | 0.00 | 0.00 | 51 | 1012.2 |
| 20260506004246 | 22 | 189 | 0.0 | 4.8 | 0.00 | 0.00 | 0.00 | 51 | 1012.3 |
| 20260506004004 | 22 | 146 | 0.0 | 4.8 | 0.00 | 0.00 | 0.00 | 51 | 1012.2 |
| 20260506003952 | 22 | 253 | 0.0 | 4.8 | 0.00 | 0.00 | 0.00 | 51 | 1012.3 |
| 20260506003723 | 22 | 146 | 0.0 | 4.8 | 0.00 | 0.00 | 0.00 | 50 | 1012.2 |
| 20260506003621 | 22 | 167 | 0.0 | 4.8 | 0.00 | 0.00 | 0.00 | 51 | 1012.2 |
| 20260506003519 | 22 | 207 | 0.0 | 4.8 | 0.00 | 0.00 | 0.00 | 50 | 1012.2 |
| 20260506003445 | 22 | 209 | 0.0 | 4.8 | 0.00 | 0.00 | 0.00 | 50 | 1012.2 |
| 20260506003436 | 22 | 153 | 0.0 | 4.8 | 0.00 | 0.00 | 0.00 | 51 | 1012.2 |
| 20260506003220 | 22 | 198 | 0.0 | 4.8 | 0.00 | 0.00 | 0.00 | 50 | 1012.2 |
| 20260506003118 | 22 | 191 | 0.0 | 4.8 | 0.00 | 0.00 | 0.00 | 51 | 1012.2 |
| 20260506003019 | 22 | 153 | 0.0 | 4.8 | 0.00 | 0.00 | 0.00 | 50 | 1012.2 |
| 20260506002917 | 22 | 156 | 0.0 | 4.8 | 0.00 | 0.00 | 0.00 | 51 | 1012.2 |
| 20260506002818 | 22 | 113 | 0.0 | 3.2 | 0.00 | 0.00 | 0.00 | 50 | 1012.3 |
| 20260506002721 | 22 | 202 | 0.0 | 3.2 | 0.00 | 0.00 | 0.00 | 50 | 1012.2 |
| 20260506002618 | 22 | 215 | 0.0 | 3.2 | 0.00 | 0.00 | 0.00 | 50 | 1012.2 |
| 20260506002518 | 22 | 207 | 0.0 | 3.2 | 0.00 | 0.00 | 0.00 | 51 | 1012.2 |
| 20260506002443 | 22 | 149 | 0.0 | 3.2 | 0.00 | 0.00 | 0.00 | 50 | 1012.2 |
| 20260506002434 | 22 | 273 | 0.0 | 3.2 | 0.00 | 0.00 | 0.00 | 50 | 1012.2 |
| 20260506002219 | 22 | 216 | 0.0 | 3.2 | 0.00 | 0.00 | 0.00 | 50 | 1012.1 |
| 20260506002115 | 22 | 136 | 0.0 | 3.2 | 0.00 | 0.00 | 0.00 | 50 | 1012.1 |
| 20260506002049 | 22 | 215 | 0.0 | 3.2 | 0.00 | 0.00 | 0.00 | 50 | 1012.2 |
| 20260506002038 | 22 | 151 | 0.0 | 3.2 | 0.00 | 0.00 | 0.00 | 50 | 1012.1 |
| 20260506002032 | 22 | 150 | 0.0 | 3.2 | 0.00 | 0.00 | 0.00 | 50 | 1012.1 |
| 20260506001813 | 22 | 205 | 0.0 | 3.2 | 0.00 | 0.00 | 0.00 | 50 | 1012.2 |
| 20260506001740 | 22 | 265 | 0.0 | 4.8 | 0.00 | 0.00 | 0.00 | 50 | 1012.3 |
| 20260506001729 | 22 | 215 | 0.0 | 4.8 | 0.00 | 0.00 | 0.00 | 50 | 1012.2 |
| 20260506001520 | 22 | 199 | 0.0 | 4.8 | 0.00 | 0.00 | 0.00 | 50 | 1012.3 |
| 20260506001511 | 22 | 184 | 0.0 | 4.8 | 0.00 | 0.00 | 0.00 | 50 | 1012.3 |
| 20260506001411 | 22 | 214 | 0.0 | 4.8 | 0.00 | 0.00 | 0.00 | 50 | 1012.3 |
| 20260506001311 | 22 | 209 | 0.0 | 4.8 | 0.00 | 0.00 | 0.00 | 49 | 1012.3 |
| 20260506001212 | 22 | 244 | 0.0 | 4.8 | 0.00 | 0.00 | 0.00 | 49 | 1012.3 |
| 20260506001111 | 22 | 145 | 0.0 | 4.8 | 0.00 | 0.00 | 0.00 | 49 | 1012.4 |
| 20260506001020 | 22 | 232 | 0.0 | 4.8 | 0.00 | 0.00 | 0.00 | 49 | 1012.4 |
| 20260506001013 | 22 | 169 | 0.0 | 4.8 | 0.00 | 0.00 | 0.00 | 49 | 1012.4 |
| 20260506000938 | 22 | 214 | 0.0 | 4.8 | 0.00 | 0.00 | 0.00 | 49 | 1012.5 |
| 20260506000929 | 22 | 169 | 0.0 | 4.8 | 0.00 | 0.00 | 0.00 | 49 | 1012.4 |
| 20260506000712 | 22 | 135 | 0.0 | 4.8 | 0.00 | 0.00 | 0.00 | 49 | 1012.5 |
| 20260506000612 | 22 | 215 | 0.0 | 4.8 | 0.00 | 0.00 | 0.00 | 49 | 1012.5 |
| 20260506000511 | 22 | 194 | 0.0 | 4.8 | 0.00 | 0.00 | 0.00 | 49 | 1012.5 |
| 20260506000411 | 22 | 193 | 0.0 | 4.8 | 0.00 | 0.00 | 0.00 | 49 | 1012.5 |
| 20260506000313 | 22 | 141 | 0.0 | 4.8 | 0.00 | 0.00 | 0.00 | 48 | 1012.5 |
| 20260506000212 | 22 | 192 | 0.0 | 4.8 | 0.00 | 0.00 | 0.00 | 49 | 1012.5 |
| 20260506000147 | 22 | 151 | 0.0 | 3.2 | 0.00 | 0.00 | 0.00 | 50 | 1012.5 |
| 20260506000141 | 22 | 163 | 0.0 | 1.6 | 0.00 | 0.00 | 0.00 | 50 | 1012.5 |
| 20260506000137 | 22 | 145 | 0.0 | 1.6 | 0.00 | 0.00 | 0.00 | 50 | 1012.5 |
| 20260506000131 | 22 | 187 | 0.0 | 1.6 | 0.00 | 0.00 | 0.00 | 50 | 1012.6 |
| 20260506000123 | 22 | 175 | 0.0 | 4.8 | 0.00 | 0.00 | 0.00 | 49 | 1012.5 |
| 20260506000107 | 22 | 205 | 0.0 | 4.8 | 0.00 | 0.00 | 0.00 | 49 | 1012.5 |
| 20260506000101 | 22 | 144 | 0.0 | 4.8 | 0.00 | 0.00 | 0.00 | 49 | 1012.5 |
| 20260505235635 | 22 | 187 | 0.0 | 1.6 | 0.00 | 0.00 | 0.00 | 50 | 1012.5 |
| 20260505235509 | 22 | 187 | 0.0 | 1.6 | 0.00 | 0.00 | 0.00 | 50 | 1012.6 |
| 20260505235410 | 22 | 187 | 0.0 | 1.6 | 0.00 | 0.00 | 0.00 | 50 | 1012.5 |
| 20260505235310 | 22 | 187 | 0.0 | 1.6 | 0.00 | 0.00 | 0.00 | 50 | 1012.5 |
| 20260505235208 | 22 | 187 | 0.0 | 1.6 | 0.00 | 0.00 | 0.00 | 51 | 1012.6 |
| 20260505235105 | 23 | 186 | 0.0 | 1.6 | 0.00 | 0.00 | 0.00 | 50 | 1012.6 |
| 20260505235019 | 23 | 186 | 0.0 | 1.6 | 0.00 | 0.00 | 0.00 | 50 | 1012.6 |
| 20260505235005 | 23 | 187 | 0.0 | 1.6 | 0.00 | 0.00 | 0.00 | 50 | 1012.6 |
| 20260505234905 | 23 | 187 | 0.0 | 1.6 | 0.00 | 0.00 | 0.00 | 50 | 1012.6 |
| 20260505234805 | 23 | 184 | 0.0 | 1.6 | 0.00 | 0.00 | 0.00 | 50 | 1012.6 |
| 20260505234707 | 23 | 184 | 0.0 | 1.6 | 0.00 | 0.00 | 0.00 | 50 | 1012.6 |
| 20260505234607 | 23 | 184 | 0.0 | 1.6 | 0.00 | 0.00 | 0.00 | 50 | 1012.6 |
| 20260505234520 | 23 | 184 | 0.0 | 1.6 | 0.00 | 0.00 | 0.00 | 50 | 1012.6 |
| 20260505234506 | 23 | 185 | 0.0 | 1.6 | 0.00 | 0.00 | 0.00 | 50 | 1012.6 |
| 20260505234407 | 23 | 185 | 0.0 | 1.6 | 0.00 | 0.00 | 0.00 | 51 | 1012.5 |
| 20260505234304 | 23 | 185 | 0.0 | 1.6 | 0.00 | 0.00 | 0.00 | 50 | 1012.5 |
| 20260505234203 | 23 | 156 | 0.0 | 4.8 | 0.00 | 0.00 | 0.00 | 51 | 1012.5 |
| 20260505234105 | 23 | 149 | 0.0 | 6.4 | 0.00 | 0.00 | 0.00 | 51 | 1012.6 |
| 20260505234017 | 23 | 138 | 0.0 | 6.4 | 0.00 | 0.00 | 0.00 | 51 | 1012.6 |
| 20260505234001 | 23 | 138 | 0.0 | 6.4 | 0.00 | 0.00 | 0.00 | 51 | 1012.6 |
| 20260505233859 | 23 | 139 | 0.0 | 6.4 | 0.00 | 0.00 | 0.00 | 50 | 1012.6 |
| 20260505233800 | 23 | 144 | 0.0 | 6.4 | 0.00 | 0.00 | 0.00 | 51 | 1012.6 |
| 20260505233701 | 23 | 214 | 0.0 | 6.4 | 0.00 | 0.00 | 0.00 | 51 | 1012.6 |
| 20260505233558 | 23 | 136 | 0.0 | 6.4 | 0.00 | 0.00 | 0.00 | 52 | 1012.7 |
| 20260505233519 | 23 | 209 | 0.0 | 6.4 | 0.00 | 0.00 | 0.00 | 52 | 1012.7 |
| 20260505233459 | 23 | 211 | 0.0 | 6.4 | 0.00 | 0.00 | 0.00 | 52 | 1012.7 |
| 20260505233359 | 23 | 211 | 0.0 | 6.4 | 0.00 | 0.00 | 0.00 | 51 | 1012.7 |
| 20260505233322 | 23 | 156 | 0.0 | 4.8 | 0.00 | 0.00 | 0.00 | 51 | 1012.7 |
| 20260505233313 | 23 | 164 | 0.0 | 6.4 | 0.00 | 0.00 | 0.00 | 51 | 1012.8 |
| 20260505233056 | 23 | 219 | 0.0 | 3.2 | 0.00 | 0.00 | 0.00 | 51 | 1012.7 |
| 20260505233017 | 23 | 219 | 0.0 | 3.2 | 0.00 | 0.00 | 0.00 | 52 | 1012.7 |
| 20260505232954 | 23 | 219 | 0.0 | 3.2 | 0.00 | 0.00 | 0.00 | 52 | 1012.7 |
| 20260505232853 | 23 | 219 | 0.0 | 3.2 | 0.00 | 0.00 | 0.00 | 51 | 1012.7 |
| 20260505232751 | 23 | 158 | 0.0 | 1.6 | 0.00 | 0.00 | 0.00 | 52 | 1012.7 |
| 20260505232652 | 23 | 159 | 0.0 | 1.6 | 0.00 | 0.00 | 0.00 | 51 | 1012.7 |
| 20260505232558 | 23 | 148 | 0.0 | 1.6 | 0.00 | 0.00 | 0.00 | 50 | 1012.7 |
| 20260505232553 | 23 | 159 | 0.0 | 1.6 | 0.00 | 0.00 | 0.00 | 51 | 1012.7 |
| 20260505232517 | 23 | 159 | 0.0 | 1.6 | 0.00 | 0.00 | 0.00 | 51 | 1012.7 |
| 20260505232450 | 23 | 159 | 0.0 | 1.6 | 0.00 | 0.00 | 0.00 | 51 | 1012.7 |
| 20260505232408 | 23 | 148 | 0.0 | 1.6 | 0.00 | 0.00 | 0.00 | 50 | 1012.7 |
| 20260505232404 | 23 | 145 | 0.0 | 3.2 | 0.00 | 0.00 | 0.00 | 50 | 1012.7 |
| 20260505232357 | 23 | 148 | 0.0 | 1.6 | 0.00 | 0.00 | 0.00 | 51 | 1012.7 |
| 20260505232341 | 23 | 148 | 0.0 | 1.6 | 0.00 | 0.00 | 0.00 | 50 | 1012.8 |
| 20260505232207 | 23 | 148 | 0.0 | 1.6 | 0.00 | 0.00 | 0.00 | 49 | 1012.8 |
| 20260505231846 | 23 | 204 | 0.0 | 3.2 | 0.00 | 0.00 | 0.00 | 50 | 1012.7 |
| 20260505231743 | 23 | 205 | 0.0 | 3.2 | 0.00 | 0.00 | 0.00 | 50 | 1012.7 |
| 20260505231645 | 23 | 205 | 0.0 | 3.2 | 0.00 | 0.00 | 0.00 | 49 | 1012.7 |
| 20260505231544 | 23 | 205 | 0.0 | 3.2 | 0.00 | 0.00 | 0.00 | 50 | 1012.7 |
| 20260505231518 | 23 | 205 | 0.0 | 3.2 | 0.00 | 0.00 | 0.00 | 50 | 1012.6 |
| 20260505231443 | 24 | 205 | 0.0 | 3.2 | 0.00 | 0.00 | 0.00 | 49 | 1012.6 |
| 20260505231342 | 24 | 205 | 0.0 | 3.2 | 0.00 | 0.00 | 0.00 | 48 | 1012.7 |
| 20260505231241 | 24 | 205 | 1.6 | 4.8 | 0.00 | 0.00 | 0.00 | 48 | 1012.6 |
| 20260505231139 | 24 | 205 | 1.6 | 6.4 | 0.00 | 0.00 | 0.00 | 48 | 1012.6 |
| 20260505231017 | 24 | 206 | 1.6 | 6.4 | 0.00 | 0.00 | 0.00 | 47 | 1012.6 |
| 20260505230939 | 24 | 192 | 1.6 | 6.4 | 0.00 | 0.00 | 0.00 | 47 | 1012.6 |
| 20260505230903 | 24 | 160 | 1.6 | 6.4 | 0.00 | 0.00 | 0.00 | 47 | 1012.6 |
| 20260505230855 | 24 | 122 | 1.6 | 6.4 | 0.00 | 0.00 | 0.00 | 47 | 1012.6 |
| 20260505230636 | 24 | 203 | 1.6 | 6.4 | 0.00 | 0.00 | 0.00 | 47 | 1012.6 |
| 20260505230605 | 24 | 205 | 1.6 | 6.4 | 0.00 | 0.00 | 0.00 | 46 | 1012.7 |
| 20260505230545 | 24 | 203 | 1.6 | 6.4 | 0.00 | 0.00 | 0.00 | 47 | 1012.7 |
| 20260505230358 | 24 | 108 | 0.0 | 6.4 | 0.00 | 0.00 | 0.00 | 45 | 1012.6 |
| 20260505230349 | 24 | 202 | 0.0 | 6.4 | 0.00 | 0.00 | 0.00 | 45 | 1012.6 |
| 20260505230131 | 24 | 145 | 0.0 | 4.8 | 0.00 | 0.00 | 0.00 | 46 | 1012.6 |
| 20260505230032 | 24 | 192 | 0.0 | 4.8 | 0.00 | 0.00 | 0.00 | 45 | 1012.6 |
| 20260505230019 | 24 | 192 | 0.0 | 4.8 | 0.00 | 0.00 | 0.00 | 45 | 1012.5 |
| 20260505225931 | 24 | 196 | 0.0 | 4.8 | 0.00 | 0.00 | 0.00 | 45 | 1012.5 |
| 20260505225831 | 24 | 156 | 0.0 | 3.2 | 0.00 | 0.00 | 0.00 | 46 | 1012.6 |
| 20260505225729 | 24 | 215 | 0.0 | 3.2 | 0.00 | 0.00 | 0.00 | 45 | 1012.5 |
| 20260505225630 | 24 | 215 | 1.6 | 4.8 | 0.00 | 0.00 | 0.00 | 45 | 1012.5 |
| 20260505225604 | 24 | 194 | 1.6 | 4.8 | 0.00 | 0.00 | 0.00 | 45 | 1012.5 |
| 20260505225552 | 24 | 212 | 1.6 | 4.8 | 0.00 | 0.00 | 0.00 | 46 | 1012.5 |
| 20260505225542 | 24 | 217 | 1.6 | 4.8 | 0.00 | 0.00 | 0.00 | 46 | 1012.5 |
| 20260505225329 | 24 | 207 | 1.6 | 4.8 | 0.00 | 0.00 | 0.00 | 45 | 1012.5 |
| 20260505225228 | 24 | 163 | 1.6 | 4.8 | 0.00 | 0.00 | 0.00 | 44 | 1012.5 |
| 20260505225129 | 24 | 136 | 1.6 | 8.0 | 0.00 | 0.00 | 0.00 | 44 | 1012.4 |
| 20260505225026 | 24 | 169 | 1.6 | 8.0 | 0.00 | 0.00 | 0.00 | 45 | 1012.4 |
| 20260505225017 | 24 | 144 | 1.6 | 8.0 | 0.00 | 0.00 | 0.00 | 45 | 1012.4 |
| 20260505224927 | 24 | 203 | 1.6 | 8.0 | 0.00 | 0.00 | 0.00 | 44 | 1012.4 |
| 20260505224859 | 25 | 163 | 1.6 | 8.0 | 0.00 | 0.00 | 0.00 | 43 | 1012.4 |
| 20260505224846 | 25 | 119 | 1.6 | 8.0 | 0.00 | 0.00 | 0.00 | 44 | 1012.4 |
| 20260505224725 | 25 | 194 | 1.6 | 8.0 | 0.00 | 0.00 | 0.00 | 43 | 1012.3 |
| 20260505224712 | 25 | 178 | 1.6 | 4.8 | 0.00 | 0.00 | 0.00 | 44 | 1012.5 |
| 20260505224706 | 25 | 145 | 1.6 | 4.8 | 0.00 | 0.00 | 0.00 | 44 | 1012.5 |
| 20260505224701 | 25 | 193 | 1.6 | 4.8 | 0.00 | 0.00 | 0.00 | 44 | 1012.5 |
| 20260505224656 | 25 | 217 | 1.6 | 4.8 | 0.00 | 0.00 | 0.00 | 43 | 1012.5 |
| 20260505224644 | 25 | 112 | 1.6 | 8.0 | 0.00 | 0.00 | 0.00 | 44 | 1012.3 |
| 20260505224520 | 25 | 163 | 1.6 | 8.0 | 0.00 | 0.00 | 0.00 | 43 | 1012.4 |
| 20260505224511 | 25 | 123 | 1.6 | 4.8 | 0.00 | 0.00 | 0.00 | 43 | 1012.4 |
| 20260505224455 | 25 | 155 | 1.6 | 8.0 | 0.00 | 0.00 | 0.00 | 45 | 1012.5 |
| 20260505224440 | 25 | 209 | 1.6 | 8.0 | 0.00 | 0.00 | 0.00 | 44 | 1012.5 |
| 20260505224423 | 25 | 123 | 1.6 | 8.0 | 0.00 | 0.00 | 0.00 | 44 | 1012.5 |
| 20260505224405 | 25 | 153 | 1.6 | 4.8 | 0.00 | 0.00 | 0.00 | 44 | 1012.5 |
| 20260505223736 | 25 | 130 | 1.6 | 4.8 | 0.00 | 0.00 | 0.00 | 43 | 1012.5 |
| 20260505223414 | 25 | 123 | 1.6 | 4.8 | 0.00 | 0.00 | 0.00 | 42 | 1012.3 |
| 20260505223315 | 25 | 123 | 1.6 | 4.8 | 0.00 | 0.00 | 0.00 | 42 | 1012.3 |
| 20260505223214 | 25 | 119 | 1.6 | 4.8 | 0.00 | 0.00 | 0.00 | 42 | 1012.2 |
| 20260505223137 | 25 | 202 | 1.6 | 4.8 | 0.00 | 0.00 | 0.00 | 43 | 1012.1 |
| 20260505223119 | 25 | 195 | 1.6 | 4.8 | 0.00 | 0.00 | 0.00 | 43 | 1012.2 |
| 20260505222915 | 25 | 215 | 1.6 | 4.8 | 0.00 | 0.00 | 0.00 | 43 | 1012.1 |
| 20260505222814 | 25 | 196 | 1.6 | 9.7 | 0.00 | 0.00 | 0.00 | 43 | 1012.1 |
| 20260505222713 | 25 | 161 | 1.6 | 9.7 | 0.00 | 0.00 | 0.00 | 43 | 1012.1 |
| 20260505222612 | 25 | 115 | 1.6 | 9.7 | 0.00 | 0.00 | 0.00 | 42 | 1012.1 |
| 20260505222543 | 25 | 113 | 1.6 | 9.7 | 0.00 | 0.00 | 0.00 | 42 | 1012.1 |
| 20260505222532 | 25 | 183 | 1.6 | 9.7 | 0.00 | 0.00 | 0.00 | 42 | 1012.2 |
| 20260505222527 | 25 | 159 | 1.6 | 9.7 | 0.00 | 0.00 | 0.00 | 42 | 1012.2 |
| 20260505222309 | 25 | 123 | 1.6 | 9.7 | 0.00 | 0.00 | 0.00 | 43 | 1012.2 |
| 20260505222208 | 25 | 206 | 1.6 | 9.7 | 0.00 | 0.00 | 0.00 | 43 | 1012.2 |
| 20260505222108 | 25 | 99 | 1.6 | 9.7 | 0.00 | 0.00 | 0.00 | 43 | 1012.2 |
| 20260505222016 | 25 | 115 | 1.6 | 9.7 | 0.00 | 0.00 | 0.00 | 43 | 1012.2 |
| 20260505222007 | 25 | 116 | 1.6 | 9.7 | 0.00 | 0.00 | 0.00 | 43 | 1012.2 |
| 20260505221906 | 25 | 107 | 0.0 | 9.7 | 0.00 | 0.00 | 0.00 | 43 | 1012.3 |
| 20260505221806 | 24 | 107 | 0.0 | 8.0 | 0.00 | 0.00 | 0.00 | 42 | 1012.3 |
| 20260505221704 | 24 | 125 | 0.0 | 8.0 | 0.00 | 0.00 | 0.00 | 43 | 1012.3 |
| 20260505221604 | 24 | 240 | 0.0 | 8.0 | 0.00 | 0.00 | 0.00 | 43 | 1012.3 |
| 20260505221523 | 25 | 199 | 0.0 | 4.8 | 0.00 | 0.00 | 0.00 | 43 | 1012.3 |
| 20260505221516 | 24 | 152 | 0.0 | 8.0 | 0.00 | 0.00 | 0.00 | 43 | 1012.2 |
| 20260505221503 | 24 | 230 | 0.0 | 8.0 | 0.00 | 0.00 | 0.00 | 43 | 1012.2 |
| 20260505221438 | 25 | 223 | 0.0 | 8.0 | 0.00 | 0.00 | 0.00 | 44 | 1012.3 |
| 20260505221432 | 25 | 200 | 0.0 | 4.8 | 0.00 | 0.00 | 0.00 | 43 | 1012.3 |
| 20260505221421 | 24 | 166 | 0.0 | 8.0 | 0.00 | 0.00 | 0.00 | 43 | 1012.2 |
| 20260505221246 | 25 | 180 | 0.0 | 6.4 | 0.00 | 0.00 | 0.00 | 43 | 1012.2 |
| 20260505220957 | 25 | 195 | 0.0 | 4.8 | 0.00 | 0.00 | 0.00 | 43 | 1012.3 |
| 20260505220857 | 25 | 212 | 0.0 | 4.8 | 0.00 | 0.00 | 0.00 | 43 | 1012.3 |
| 20260505220824 | 25 | 101 | 1.6 | 4.8 | 0.00 | 0.00 | 0.00 | 43 | 1012.4 |
| 20260505220814 | 25 | 182 | 0.0 | 4.8 | 0.00 | 0.00 | 0.00 | 43 | 1012.4 |
| 20260505220556 | 25 | 117 | 0.0 | 8.0 | 0.00 | 0.00 | 0.00 | 43 | 1012.5 |
| 20260505220516 | 25 | 107 | 0.0 | 8.0 | 0.00 | 0.00 | 0.00 | 43 | 1012.5 |
| 20260505220455 | 25 | 186 | 0.0 | 8.0 | 0.00 | 0.00 | 0.00 | 43 | 1012.5 |
| 20260505220355 | 25 | 121 | 1.6 | 8.0 | 0.00 | 0.00 | 0.00 | 43 | 1012.5 |
| 20260505220331 | 25 | 145 | 1.6 | 8.0 | 0.00 | 0.00 | 0.00 | 43 | 1012.6 |
| 20260505220320 | 25 | 186 | 1.6 | 8.0 | 0.00 | 0.00 | 0.00 | 43 | 1012.6 |
| 20260505220052 | 25 | 221 | 1.6 | 8.0 | 0.00 | 0.00 | 0.00 | 42 | 1012.5 |
| 20260505220015 | 25 | 201 | 1.6 | 8.0 | 0.00 | 0.00 | 0.00 | 42 | 1012.5 |
| 20260505215950 | 25 | 201 | 1.6 | 8.0 | 0.00 | 0.00 | 0.00 | 42 | 1012.5 |
| 20260505215915 | 25 | 209 | 1.6 | 8.0 | 0.00 | 0.00 | 0.00 | 41 | 1012.5 |
| 20260505215906 | 25 | 199 | 1.6 | 8.0 | 0.00 | 0.00 | 0.00 | 42 | 1012.5 |
| 20260505215647 | 25 | 209 | 0.0 | 8.0 | 0.00 | 0.00 | 0.00 | 41 | 1012.5 |
| 20260505215547 | 25 | 123 | 0.0 | 8.0 | 0.00 | 0.00 | 0.00 | 41 | 1012.5 |
| 20260505215515 | 25 | 199 | 0.0 | 8.0 | 0.00 | 0.00 | 0.00 | 41 | 1012.5 |
| 20260505215447 | 25 | 221 | 0.0 | 8.0 | 0.00 | 0.00 | 0.00 | 41 | 1012.5 |
| 20260505215346 | 25 | 159 | 0.0 | 4.8 | 0.00 | 0.00 | 0.00 | 42 | 1012.6 |
| 20260505215310 | 25 | 111 | 0.0 | 4.8 | 0.00 | 0.00 | 0.00 | 42 | 1012.6 |
| 20260505215305 | 25 | 241 | 0.0 | 4.8 | 0.00 | 0.00 | 0.00 | 42 | 1012.6 |
| 20260505215044 | 25 | 112 | 1.6 | 6.4 | 0.00 | 0.00 | 0.00 | 41 | 1012.6 |
| 20260505215013 | 25 | 112 | 1.6 | 6.4 | 0.00 | 0.00 | 0.00 | 41 | 1012.6 |
| 20260505214941 | 25 | 111 | 1.6 | 6.4 | 0.00 | 0.00 | 0.00 | 41 | 1012.6 |
| 20260505214841 | 25 | 111 | 1.6 | 6.4 | 0.00 | 0.00 | 0.00 | 41 | 1012.6 |
| 20260505214741 | 25 | 219 | 1.6 | 9.7 | 0.00 | 0.00 | 0.00 | 40 | 1012.6 |
| 20260505214640 | 25 | 290 | 1.6 | 9.7 | 0.00 | 0.00 | 0.00 | 40 | 1012.6 |
| 20260505214609 | 25 | 159 | 1.6 | 9.7 | 0.00 | 0.00 | 0.00 | 40 | 1012.5 |
| 20260505214559 | 25 | 149 | 1.6 | 9.7 | 0.00 | 0.00 | 0.00 | 40 | 1012.6 |
| 20260505214547 | 25 | 159 | 1.6 | 9.7 | 0.00 | 0.00 | 0.00 | 39 | 1012.5 |
| 20260505214337 | 25 | 127 | 1.6 | 9.7 | 0.00 | 0.00 | 0.00 | 39 | 1012.5 |
| 20260505214239 | 25 | 133 | 1.6 | 9.7 | 0.00 | 0.00 | 0.00 | 39 | 1012.6 |
| 20260505214137 | 25 | 210 | 1.6 | 9.7 | 0.00 | 0.00 | 0.00 | 39 | 1012.5 |
| 20260505214035 | 25 | 200 | 1.6 | 9.7 | 0.00 | 0.00 | 0.00 | 39 | 1012.5 |
| 20260505214013 | 25 | 210 | 1.6 | 9.7 | 0.00 | 0.00 | 0.00 | 39 | 1012.5 |
| 20260505213936 | 25 | 128 | 1.6 | 9.7 | 0.00 | 0.00 | 0.00 | 39 | 1012.5 |
| 20260505213903 | 25 | 112 | 1.6 | 6.4 | 0.00 | 0.00 | 0.00 | 38 | 1012.5 |
| 20260505213853 | 25 | 104 | 1.6 | 9.7 | 0.00 | 0.00 | 0.00 | 38 | 1012.5 |
| 20260505213700 | 25 | 198 | 1.6 | 9.7 | 0.00 | 0.00 | 0.00 | 39 | 1012.6 |
| 20260505213651 | 25 | 198 | 1.6 | 6.4 | 0.00 | 0.00 | 0.00 | 39 | 1012.5 |
| 20260505213513 | 25 | 135 | 1.6 | 9.7 | 0.00 | 0.00 | 0.00 | 39 | 1012.6 |
| 20260505213434 | 25 | 169 | 1.6 | 9.7 | 0.00 | 0.00 | 0.00 | 39 | 1012.6 |
| 20260505213331 | 25 | 117 | 1.6 | 9.7 | 0.00 | 0.00 | 0.00 | 38 | 1012.6 |
| 20260505213232 | 25 | 172 | 1.6 | 9.7 | 0.00 | 0.00 | 0.00 | 38 | 1012.5 |
| 20260505213156 | 26 | 153 | 1.6 | 9.7 | 0.00 | 0.00 | 0.00 | 38 | 1012.5 |
| 20260505213148 | 25 | 123 | 1.6 | 9.7 | 0.00 | 0.00 | 0.00 | 38 | 1012.5 |
| 20260505213013 | 26 | 169 | 1.6 | 9.7 | 0.00 | 0.00 | 0.00 | 38 | 1012.5 |
| 20260505212929 | 26 | 184 | 1.6 | 9.7 | 0.00 | 0.00 | 0.00 | 39 | 1012.5 |
| 20260505212830 | 26 | 134 | 1.6 | 9.7 | 0.00 | 0.00 | 0.00 | 40 | 1012.5 |
| 20260505212728 | 26 | 175 | 1.6 | 9.7 | 0.00 | 0.00 | 0.00 | 39 | 1012.4 |
| 20260505212628 | 26 | 214 | 1.6 | 9.7 | 0.00 | 0.00 | 0.00 | 39 | 1012.3 |
| 20260505212529 | 26 | 194 | 1.6 | 6.4 | 0.00 | 0.00 | 0.00 | 39 | 1012.3 |
| 20260505212512 | 26 | 110 | 1.6 | 6.4 | 0.00 | 0.00 | 0.00 | 39 | 1012.2 |
| 20260505212426 | 26 | 180 | 1.6 | 6.4 | 0.00 | 0.00 | 0.00 | 39 | 1012.2 |
| 20260505212323 | 26 | 115 | 1.6 | 9.7 | 0.00 | 0.00 | 0.00 | 40 | 1012.2 |
| 20260505212224 | 26 | 110 | 1.6 | 9.7 | 0.00 | 0.00 | 0.00 | 40 | 1012.2 |
| 20260505212123 | 26 | 215 | 1.6 | 9.7 | 0.00 | 0.00 | 0.00 | 39 | 1012.1 |
| 20260505212054 | 26 | 209 | 1.6 | 9.7 | 0.00 | 0.00 | 0.00 | 40 | 1012.3 |
| 20260505212043 | 26 | 132 | 1.6 | 9.7 | 0.00 | 0.00 | 0.00 | 40 | 1012.2 |
| 20260505212034 | 26 | 134 | 1.6 | 9.7 | 0.00 | 0.00 | 0.00 | 40 | 1012.2 |
| 20260505211822 | 26 | 191 | 3.2 | 9.7 | 0.00 | 0.00 | 0.00 | 40 | 1012.3 |
| 20260505211722 | 26 | 145 | 3.2 | 9.7 | 0.00 | 0.00 | 0.00 | 39 | 1012.4 |
| 20260505211622 | 26 | 123 | 3.2 | 9.7 | 0.00 | 0.00 | 0.00 | 39 | 1012.5 |
| 20260505211557 | 26 | 242 | 3.2 | 9.7 | 0.00 | 0.00 | 0.00 | 38 | 1012.5 |
| 20260505211545 | 26 | 223 | 3.2 | 9.7 | 0.00 | 0.00 | 0.00 | 39 | 1012.4 |
| 20260505211536 | 26 | 226 | 3.2 | 9.7 | 0.00 | 0.00 | 0.00 | 39 | 1012.4 |
| 20260505211320 | 26 | 113 | 3.2 | 8.0 | 0.00 | 0.00 | 0.00 | 38 | 1012.5 |
| 20260505211220 | 26 | 236 | 3.2 | 14.5 | 0.00 | 0.00 | 0.00 | 38 | 1012.6 |
| 20260505211120 | 26 | 203 | 3.2 | 14.5 | 0.00 | 0.00 | 0.00 | 37 | 1012.5 |
| 20260505211059 | 27 | 153 | 1.6 | 14.5 | 0.00 | 0.00 | 0.00 | 36 | 1012.6 |
| 20260505211051 | 26 | 173 | 3.2 | 14.5 | 0.00 | 0.00 | 0.00 | 36 | 1012.5 |
| 20260505211046 | 26 | 157 | 3.2 | 14.5 | 0.00 | 0.00 | 0.00 | 37 | 1012.5 |
| 20260505211041 | 26 | 213 | 3.2 | 14.5 | 0.00 | 0.00 | 0.00 | 35 | 1012.5 |
| 20260505211033 | 26 | 145 | 3.2 | 14.5 | 0.00 | 0.00 | 0.00 | 37 | 1012.5 |
| 20260505211025 | 26 | 123 | 3.2 | 14.5 | 0.00 | 0.00 | 0.00 | 37 | 1012.5 |
| 20260505211011 | 26 | 201 | 3.2 | 14.5 | 0.00 | 0.00 | 0.00 | 37 | 1012.5 |
| 20260505210954 | 26 | 205 | 3.2 | 14.5 | 0.00 | 0.00 | 0.00 | 37 | 1012.5 |
| 20260505210556 | 26 | 140 | 3.2 | 14.5 | 0.00 | 0.00 | 0.00 | 36 | 1012.5 |
| 20260505210548 | 26 | 188 | 3.2 | 14.5 | 0.00 | 0.00 | 0.00 | 36 | 1012.5 |
| 20260505210215 | 27 | 159 | 1.6 | 11.3 | 0.00 | 0.00 | 0.00 | 36 | 1012.6 |
| 20260505210115 | 27 | 94 | 1.6 | 11.3 | 0.00 | 0.00 | 0.00 | 36 | 1012.6 |
| 20260505210048 | 27 | 205 | 1.6 | 11.3 | 0.00 | 0.00 | 0.00 | 35 | 1012.6 |
| 20260505210032 | 27 | 171 | 1.6 | 11.3 | 0.00 | 0.00 | 0.00 | 35 | 1012.6 |
| 20260505205815 | 27 | 145 | 1.6 | 11.3 | 0.00 | 0.00 | 0.00 | 36 | 1012.7 |
| 20260505205716 | 27 | 140 | 1.6 | 11.3 | 0.00 | 0.00 | 0.00 | 35 | 1012.8 |
| 20260505205649 | 27 | 187 | 1.6 | 11.3 | 0.00 | 0.00 | 0.00 | 36 | 1012.8 |
| 20260505205638 | 27 | 121 | 1.6 | 11.3 | 0.00 | 0.00 | 0.00 | 36 | 1012.8 |
| 20260505205516 | 27 | 187 | 1.6 | 11.3 | 0.00 | 0.00 | 0.00 | 36 | 1012.8 |
| 20260505205416 | 27 | 205 | 1.6 | 9.7 | 0.00 | 0.00 | 0.00 | 36 | 1012.7 |
| 20260505205316 | 27 | 240 | 3.2 | 9.7 | 0.00 | 0.00 | 0.00 | 36 | 1012.7 |
| 20260505205244 | 27 | 234 | 1.6 | 9.7 | 0.00 | 0.00 | 0.00 | 35 | 1012.7 |
| 20260505205235 | 27 | 250 | 3.2 | 9.7 | 0.00 | 0.00 | 0.00 | 36 | 1012.7 |
| 20260505205018 | 27 | 264 | 1.6 | 9.7 | 0.00 | 0.00 | 0.00 | 36 | 1012.7 |
| 20260505205014 | 27 | 258 | 1.6 | 9.7 | 0.00 | 0.00 | 0.00 | 36 | 1012.7 |
| 20260505204912 | 27 | 230 | 1.6 | 9.7 | 0.00 | 0.00 | 0.00 | 36 | 1012.7 |
| 20260505204812 | 27 | 159 | 1.6 | 9.7 | 0.00 | 0.00 | 0.00 | 36 | 1012.7 |
| 20260505204741 | 27 | 186 | 1.6 | 8.0 | 0.00 | 0.00 | 0.00 | 36 | 1012.7 |
| 20260505204730 | 27 | 190 | 1.6 | 9.7 | 0.00 | 0.00 | 0.00 | 35 | 1012.7 |
| 20260505204515 | 27 | 149 | 1.6 | 8.0 | 0.00 | 0.00 | 0.00 | 36 | 1012.7 |
| 20260505204510 | 27 | 118 | 1.6 | 8.0 | 0.00 | 0.00 | 0.00 | 36 | 1012.7 |
| 20260505204434 | 27 | 253 | 1.6 | 8.0 | 0.00 | 0.00 | 0.00 | 35 | 1012.8 |
| 20260505204425 | 27 | 261 | 1.6 | 8.0 | 0.00 | 0.00 | 0.00 | 35 | 1012.8 |
| 20260505204209 | 27 | 264 | 1.6 | 8.0 | 0.00 | 0.00 | 0.00 | 36 | 1012.8 |
| 20260505204139 | 27 | 252 | 3.2 | 8.0 | 0.00 | 0.00 | 0.00 | 36 | 1013.0 |
| 20260505204128 | 27 | 206 | 3.2 | 8.0 | 0.00 | 0.00 | 0.00 | 35 | 1012.9 |
| 20260505204111 | 27 | 169 | 3.2 | 8.0 | 0.00 | 0.00 | 0.00 | 36 | 1013.0 |
| 20260505203905 | 27 | 284 | 3.2 | 8.0 | 0.00 | 0.00 | 0.00 | 36 | 1012.9 |
| 20260505203834 | 27 | 121 | 3.2 | 8.0 | 0.00 | 0.00 | 0.00 | 35 | 1012.9 |
| 20260505203825 | 27 | 195 | 3.2 | 8.0 | 0.00 | 0.00 | 0.00 | 37 | 1012.9 |
| 20260505203606 | 27 | 129 | 3.2 | 8.0 | 0.00 | 0.00 | 0.00 | 34 | 1012.9 |
| 20260505203513 | 27 | 115 | 1.6 | 8.0 | 0.00 | 0.00 | 0.00 | 35 | 1012.8 |
| 20260505203506 | 27 | 69 | 1.6 | 8.0 | 0.00 | 0.00 | 0.00 | 35 | 1012.8 |
| 20260505203406 | 27 | 144 | 1.6 | 8.0 | 0.00 | 0.00 | 0.00 | 35 | 1012.8 |
| 20260505203306 | 27 | 149 | 1.6 | 8.0 | 0.00 | 0.00 | 0.00 | 34 | 1012.8 |
| 20260505203206 | 27 | 211 | 3.2 | 6.4 | 0.00 | 0.00 | 0.00 | 33 | 1012.9 |
| 20260505203139 | 27 | 272 | 3.2 | 11.3 | 0.00 | 0.00 | 0.00 | 35 | 1012.9 |
| 20260505203127 | 27 | 252 | 3.2 | 11.3 | 0.00 | 0.00 | 0.00 | 35 | 1012.9 |
| 20260505203112 | 27 | 271 | 3.2 | 11.3 | 0.00 | 0.00 | 0.00 | 35 | 1012.9 |
| 20260505202906 | 27 | 192 | 3.2 | 11.3 | 0.00 | 0.00 | 0.00 | 36 | 1012.9 |
| 20260505202806 | 27 | 186 | 3.2 | 11.3 | 0.00 | 0.00 | 0.00 | 35 | 1012.9 |
| 20260505202733 | 27 | 115 | 3.2 | 11.3 | 0.00 | 0.00 | 0.00 | 34 | 1012.9 |
| 20260505202723 | 27 | 123 | 3.2 | 11.3 | 0.00 | 0.00 | 0.00 | 35 | 1012.9 |
| 20260505202514 | 27 | 156 | 3.2 | 11.3 | 0.00 | 0.00 | 0.00 | 36 | 1012.9 |
| 20260505202505 | 27 | 133 | 3.2 | 11.3 | 0.00 | 0.00 | 0.00 | 36 | 1012.9 |
| 20260505202431 | 27 | 137 | 3.2 | 11.3 | 0.00 | 0.00 | 0.00 | 34 | 1013.0 |
| 20260505202423 | 27 | 180 | 3.2 | 11.3 | 0.00 | 0.00 | 0.00 | 34 | 1012.9 |
| 20260505202206 | 27 | 134 | 1.6 | 11.3 | 0.00 | 0.00 | 0.00 | 34 | 1013.0 |
| 20260505202105 | 27 | 165 | 1.6 | 8.0 | 0.00 | 0.00 | 0.00 | 35 | 1013.0 |
| 20260505202011 | 27 | 136 | 3.2 | 11.3 | 0.00 | 0.00 | 0.00 | 34 | 1013.0 |
| 20260505202005 | 27 | 130 | 3.2 | 11.3 | 0.00 | 0.00 | 0.00 | 34 | 1013.0 |
| 20260505201905 | 27 | 137 | 1.6 | 14.5 | 0.00 | 0.00 | 0.00 | 36 | 1013.1 |
| 20260505201805 | 27 | 113 | 3.2 | 14.5 | 0.00 | 0.00 | 0.00 | 36 | 1013.1 |
| 20260505201705 | 27 | 241 | 3.2 | 14.5 | 0.00 | 0.00 | 0.00 | 36 | 1013.1 |
| 20260505201603 | 27 | 248 | 3.2 | 14.5 | 0.00 | 0.00 | 0.00 | 35 | 1013.0 |
| 20260505201511 | 27 | 234 | 3.2 | 14.5 | 0.00 | 0.00 | 0.00 | 36 | 1013.1 |
| 20260505201504 | 27 | 236 | 3.2 | 14.5 | 0.00 | 0.00 | 0.00 | 36 | 1013.1 |
| 20260505201401 | 27 | 128 | 3.2 | 14.5 | 0.00 | 0.00 | 0.00 | 37 | 1013.1 |
| 20260505201301 | 27 | 272 | 3.2 | 17.7 | 0.00 | 0.00 | 0.00 | 36 | 1013.1 |
| 20260505201227 | 27 | 103 | 3.2 | 17.7 | 0.00 | 0.00 | 0.00 | 35 | 1013.1 |
| 20260505201216 | 27 | 222 | 3.2 | 17.7 | 0.00 | 0.00 | 0.00 | 35 | 1013.0 |
| 20260505201012 | 27 | 126 | 3.2 | 17.7 | 0.00 | 0.00 | 0.00 | 34 | 1013.1 |
| 20260505201000 | 27 | 44 | 3.2 | 17.7 | 0.00 | 0.00 | 0.00 | 34 | 1013.1 |
| 20260505200859 | 27 | 258 | 3.2 | 17.7 | 0.00 | 0.00 | 0.00 | 35 | 1013.1 |
| 20260505200801 | 27 | 75 | 3.2 | 17.7 | 0.00 | 0.00 | 0.00 | 35 | 1013.2 |
| 20260505200659 | 27 | 205 | 3.2 | 17.7 | 0.00 | 0.00 | 0.00 | 36 | 1013.2 |
| 20260505200600 | 27 | 283 | 3.2 | 17.7 | 0.00 | 0.00 | 0.00 | 36 | 1013.2 |
| 20260505200511 | 27 | 292 | 3.2 | 17.7 | 0.00 | 0.00 | 0.00 | 36 | 1013.4 |
| 20260505200458 | 27 | 138 | 3.2 | 17.7 | 0.00 | 0.00 | 0.00 | 36 | 1013.4 |
| 20260505200357 | 27 | 221 | 3.2 | 17.7 | 0.00 | 0.00 | 0.00 | 37 | 1013.4 |
| 20260505200257 | 27 | 267 | 3.2 | 12.9 | 0.00 | 0.00 | 0.00 | 36 | 1013.2 |
| 20260505200159 | 27 | 133 | 3.2 | 12.9 | 0.00 | 0.00 | 0.00 | 35 | 1013.4 |
| 20260505200058 | 27 | 209 | 3.2 | 12.9 | 0.00 | 0.00 | 0.00 | 34 | 1013.4 |
| 20260505200011 | 27 | 191 | 1.6 | 6.4 | 0.00 | 0.00 | 0.00 | 34 | 1013.4 |
| 20260505195958 | 27 | 150 | 1.6 | 6.4 | 0.00 | 0.00 | 0.00 | 34 | 1013.4 |
| 20260505195858 | 27 | 272 | 1.6 | 6.4 | 0.00 | 0.00 | 0.00 | 36 | 1013.4 |
| 20260505195759 | 27 | 225 | 1.6 | 6.4 | 0.00 | 0.00 | 0.00 | 35 | 1013.4 |
| 20260505195657 | 27 | 138 | 1.6 | 6.4 | 0.00 | 0.00 | 0.00 | 34 | 1013.4 |
| 20260505195559 | 27 | 256 | 1.6 | 6.4 | 0.00 | 0.00 | 0.00 | 34 | 1013.2 |
| 20260505195512 | 27 | 229 | 1.6 | 6.4 | 0.00 | 0.00 | 0.00 | 33 | 1013.2 |
| 20260505195457 | 27 | 244 | 1.6 | 6.4 | 0.00 | 0.00 | 0.00 | 33 | 1013.2 |
| 20260505195358 | 27 | 263 | 3.2 | 17.7 | 0.00 | 0.00 | 0.00 | 33 | 1013.4 |
| 20260505195258 | 27 | 253 | 3.2 | 17.7 | 0.00 | 0.00 | 0.00 | 34 | 1013.2 |
| 20260505195157 | 27 | 256 | 3.2 | 17.7 | 0.00 | 0.00 | 0.00 | 36 | 1013.4 |
| 20260505195057 | 27 | 115 | 3.2 | 17.7 | 0.00 | 0.00 | 0.00 | 37 | 1013.4 |
| 20260505195011 | 27 | 109 | 3.2 | 17.7 | 0.00 | 0.00 | 0.00 | 37 | 1013.4 |
| 20260505195005 | 27 | 109 | 3.2 | 14.5 | 0.00 | 0.00 | 0.00 | 39 | 1013.4 |
| 20260505194958 | 27 | 132 | 3.2 | 17.7 | 0.00 | 0.00 | 0.00 | 37 | 1013.4 |
| 20260505194950 | 27 | 187 | 4.8 | 17.7 | 0.00 | 0.00 | 0.00 | 36 | 1013.4 |
| 20260505194946 | 27 | 159 | 4.8 | 17.7 | 0.00 | 0.00 | 0.00 | 38 | 1013.4 |
| 20260505194934 | 27 | 128 | 3.2 | 17.7 | 0.00 | 0.00 | 0.00 | 37 | 1013.4 |
| 20260505194759 | 27 | 127 | 4.8 | 17.7 | 0.00 | 0.00 | 0.00 | 37 | 1013.4 |
| 20260505194636 | 27 | 134 | 4.8 | 17.7 | 0.00 | 0.00 | 0.00 | 40 | 1013.4 |
| 20260505194620 | 27 | 138 | 4.8 | 17.7 | 0.00 | 0.00 | 0.00 | 40 | 1013.4 |
| 20260505194326 | 27 | 119 | 3.2 | 12.9 | 0.00 | 0.00 | 0.00 | 36 | 1013.5 |
| 20260505194316 | 27 | 333 | 3.2 | 11.3 | 0.00 | 0.00 | 0.00 | 37 | 1013.5 |
| 20260505194136 | 27 | 145 | 4.8 | 12.9 | 0.00 | 0.00 | 0.00 | 36 | 1013.6 |
| 20260505194131 | 27 | 115 | 3.2 | 12.9 | 0.00 | 0.00 | 0.00 | 38 | 1013.7 |
| 20260505194119 | 27 | 219 | 4.8 | 12.9 | 0.00 | 0.00 | 0.00 | 37 | 1013.6 |
| 20260505194104 | 27 | 176 | 4.8 | 12.9 | 0.00 | 0.00 | 0.00 | 36 | 1013.6 |
| 20260505193857 | 27 | 175 | 4.8 | 12.9 | 0.00 | 0.00 | 0.00 | 37 | 1013.6 |
| 20260505193758 | 27 | 222 | 4.8 | 12.9 | 0.00 | 0.00 | 0.00 | 35 | 1013.6 |
| 20260505193749 | 27 | 113 | 3.2 | 12.9 | 0.00 | 0.00 | 0.00 | 38 | 1013.7 |
| 20260505193732 | 27 | 107 | 4.8 | 12.9 | 0.00 | 0.00 | 0.00 | 37 | 1013.7 |
| 20260505193716 | 27 | 123 | 4.8 | 12.9 | 0.00 | 0.00 | 0.00 | 38 | 1013.7 |
| 20260505193353 | 27 | 129 | 3.2 | 12.9 | 0.00 | 0.00 | 0.00 | 37 | 1013.8 |
| 20260505193254 | 27 | 169 | 3.2 | 12.9 | 0.00 | 0.00 | 0.00 | 36 | 1013.8 |
| 20260505193154 | 27 | 202 | 3.2 | 12.9 | 0.00 | 0.00 | 0.00 | 36 | 1013.8 |
| 20260505193127 | 27 | 121 | 3.2 | 11.3 | 0.00 | 0.00 | 0.00 | 37 | 1013.8 |
| 20260505193116 | 27 | 45 | 3.2 | 12.9 | 0.00 | 0.00 | 0.00 | 37 | 1013.7 |
| 20260505193101 | 27 | 144 | 3.2 | 11.3 | 0.00 | 0.00 | 0.00 | 37 | 1013.8 |
| 20260505192853 | 27 | 202 | 3.2 | 11.3 | 0.00 | 0.00 | 0.00 | 37 | 1013.8 |
| 20260505192755 | 27 | 233 | 3.2 | 11.3 | 0.00 | 0.00 | 0.00 | 37 | 1013.8 |
| 20260505192654 | 27 | 149 | 3.2 | 11.3 | 0.00 | 0.00 | 0.00 | 38 | 1013.9 |
| 20260505192553 | 27 | 121 | 3.2 | 11.3 | 0.00 | 0.00 | 0.00 | 37 | 1013.9 |
| 20260505192520 | 26 | 200 | 4.8 | 12.9 | 0.00 | 0.00 | 0.00 | 38 | 1014.0 |
| 20260505192511 | 27 | 165 | 3.2 | 11.3 | 0.00 | 0.00 | 0.00 | 38 | 1014.0 |
| 20260505192452 | 27 | 111 | 3.2 | 11.3 | 0.00 | 0.00 | 0.00 | 38 | 1014.0 |
| 20260505192354 | 27 | 98 | 4.8 | 12.9 | 0.00 | 0.00 | 0.00 | 37 | 1014.1 |
| 20260505192254 | 27 | 223 | 4.8 | 12.9 | 0.00 | 0.00 | 0.00 | 37 | 1014.1 |
| 20260505192155 | 26 | 138 | 4.8 | 12.9 | 0.00 | 0.00 | 0.00 | 37 | 1014.1 |
| 20260505192131 | 26 | 119 | 4.8 | 12.9 | 0.00 | 0.00 | 0.00 | 37 | 1014.0 |
| 20260505192011 | 26 | 107 | 4.8 | 12.9 | 0.00 | 0.00 | 0.00 | 37 | 1014.0 |
| 20260505191955 | 26 | 144 | 4.8 | 12.9 | 0.00 | 0.00 | 0.00 | 37 | 1014.0 |
| 20260505191854 | 26 | 161 | 4.8 | 12.9 | 0.00 | 0.00 | 0.00 | 37 | 1014.0 |
| 20260505191754 | 26 | 186 | 4.8 | 12.9 | 0.00 | 0.00 | 0.00 | 38 | 1014.1 |
| 20260505191653 | 26 | 111 | 4.8 | 12.9 | 0.00 | 0.00 | 0.00 | 38 | 1014.0 |
| 20260505191626 | 26 | 150 | 4.8 | 12.9 | 0.00 | 0.00 | 0.00 | 38 | 1014.0 |
| 20260505191454 | 26 | 250 | 4.8 | 12.9 | 0.00 | 0.00 | 0.00 | 39 | 1014.0 |
| 20260505191419 | 26 | 105 | 4.8 | 12.9 | 0.00 | 0.00 | 0.00 | 41 | 1014.0 |
| 20260505191411 | 26 | 104 | 4.8 | 12.9 | 0.00 | 0.00 | 0.00 | 39 | 1014.0 |
| 20260505191154 | 26 | 148 | 3.2 | 12.9 | 0.00 | 0.00 | 0.00 | 41 | 1014.1 |
| 20260505191054 | 26 | 187 | 3.2 | 12.9 | 0.00 | 0.00 | 0.00 | 41 | 1014.1 |
| 20260505191012 | 26 | 115 | 3.2 | 12.9 | 0.00 | 0.00 | 0.00 | 41 | 1014.0 |
| 20260505190953 | 26 | 235 | 3.2 | 12.9 | 0.00 | 0.00 | 0.00 | 40 | 1014.0 |
| 20260505190854 | 26 | 80 | 3.2 | 12.9 | 0.00 | 0.00 | 0.00 | 40 | 1014.1 |
| 20260505190755 | 26 | 219 | 3.2 | 12.9 | 0.00 | 0.00 | 0.00 | 39 | 1014.1 |
| 20260505190653 | 26 | 172 | 3.2 | 12.9 | 0.00 | 0.00 | 0.00 | 38 | 1014.1 |
| 20260505190554 | 26 | 115 | 1.6 | 9.7 | 0.00 | 0.00 | 0.00 | 38 | 1014.1 |
| 20260505190512 | 26 | 117 | 1.6 | 14.5 | 0.00 | 0.00 | 0.00 | 38 | 1014.2 |
| 20260505190454 | 26 | 111 | 1.6 | 14.5 | 0.00 | 0.00 | 0.00 | 40 | 1014.2 |
| 20260505190354 | 26 | 227 | 1.6 | 14.5 | 0.00 | 0.00 | 0.00 | 39 | 1014.2 |
| 20260505190252 | 26 | 191 | 1.6 | 14.5 | 0.00 | 0.00 | 0.00 | 39 | 1014.2 |
| 20260505190154 | 26 | 150 | 1.6 | 14.5 | 0.00 | 0.00 | 0.00 | 39 | 1014.2 |
| 20260505190052 | 26 | 144 | 1.6 | 14.5 | 0.00 | 0.00 | 0.00 | 38 | 1014.2 |
| 20260505190026 | 26 | 243 | 1.6 | 14.5 | 0.00 | 0.00 | 0.00 | 37 | 1014.2 |
| 20260505190018 | 26 | 144 | 1.6 | 14.5 | 0.00 | 0.00 | 0.00 | 38 | 1014.2 |
| 20260505190011 | 26 | 219 | 1.6 | 14.5 | 0.00 | 0.00 | 0.00 | 38 | 1014.2 |
| 20260505185753 | 26 | 176 | 1.6 | 14.5 | 0.00 | 0.00 | 0.00 | 38 | 1014.2 |
| 20260505185653 | 26 | 213 | 1.6 | 14.5 | 0.00 | 0.00 | 0.00 | 38 | 1014.2 |
| 20260505185621 | 26 | 148 | 1.6 | 9.7 | 0.00 | 0.00 | 0.00 | 38 | 1014.1 |
| 20260505185611 | 26 | 95 | 1.6 | 14.5 | 0.00 | 0.00 | 0.00 | 38 | 1014.2 |
| 20260505185557 | 26 | 130 | 1.6 | 11.3 | 0.00 | 0.00 | 0.00 | 38 | 1014.1 |
| 20260505185350 | 26 | 246 | 3.2 | 12.9 | 0.00 | 0.00 | 0.00 | 37 | 1014.2 |
| 20260505185250 | 26 | 246 | 3.2 | 12.9 | 0.00 | 0.00 | 0.00 | 38 | 1014.2 |
| 20260505185150 | 26 | 137 | 3.2 | 12.9 | 0.00 | 0.00 | 0.00 | 39 | 1014.1 |
| 20260505185050 | 26 | 234 | 3.2 | 12.9 | 0.00 | 0.00 | 0.00 | 38 | 1014.2 |
| 20260505185021 | 26 | 128 | 3.2 | 12.9 | 0.00 | 0.00 | 0.00 | 38 | 1014.2 |
| 20260505185013 | 26 | 226 | 3.2 | 12.9 | 0.00 | 0.00 | 0.00 | 37 | 1014.2 |
| 20260505185006 | 26 | 175 | 3.2 | 12.9 | 0.00 | 0.00 | 0.00 | 37 | 1014.2 |
| 20260505184750 | 26 | 115 | 1.6 | 12.9 | 0.00 | 0.00 | 0.00 | 40 | 1014.2 |
| 20260505184657 | 26 | 236 | 3.2 | 12.9 | 0.00 | 0.00 | 0.00 | 37 | 1014.2 |
| 20260505184648 | 26 | 248 | 3.2 | 12.9 | 0.00 | 0.00 | 0.00 | 38 | 1014.2 |
| 20260505184632 | 26 | 158 | 3.2 | 12.9 | 0.00 | 0.00 | 0.00 | 37 | 1014.2 |
| 20260505184515 | 26 | 183 | 3.2 | 12.9 | 0.00 | 0.00 | 0.00 | 36 | 1014.2 |
| 20260505184506 | 26 | 225 | 3.2 | 12.9 | 0.00 | 0.00 | 0.00 | 36 | 1014.2 |
| 20260505184250 | 26 | 266 | 3.2 | 12.9 | 0.00 | 0.00 | 0.00 | 36 | 1014.2 |
| 20260505184149 | 26 | 248 | 3.2 | 12.9 | 0.00 | 0.00 | 0.00 | 36 | 1014.2 |
| 20260505184057 | 26 | 145 | 4.8 | 16.1 | 0.00 | 0.00 | 0.00 | 37 | 1014.3 |
| 20260505184051 | 26 | 267 | 4.8 | 12.9 | 0.00 | 0.00 | 0.00 | 37 | 1014.2 |
| 20260505184044 | 26 | 113 | 4.8 | 16.1 | 0.00 | 0.00 | 0.00 | 36 | 1014.3 |
| 20260505184032 | 26 | 230 | 4.8 | 16.1 | 0.00 | 0.00 | 0.00 | 36 | 1014.2 |
| 20260505184024 | 26 | 112 | 4.8 | 16.1 | 0.00 | 0.00 | 0.00 | 36 | 1014.2 |
| 20260505183657 | 26 | 89 | 4.8 | 19.3 | 0.00 | 0.00 | 0.00 | 38 | 1014.3 |
| 20260505183650 | 26 | 145 | 4.8 | 16.1 | 0.00 | 0.00 | 0.00 | 37 | 1014.3 |
| 20260505183633 | 26 | 237 | 4.8 | 16.1 | 0.00 | 0.00 | 0.00 | 36 | 1014.3 |
| 20260505183514 | 26 | 213 | 4.8 | 16.1 | 0.00 | 0.00 | 0.00 | 36 | 1014.3 |
| 20260505183506 | 26 | 118 | 4.8 | 16.1 | 0.00 | 0.00 | 0.00 | 36 | 1014.3 |
| 20260505183249 | 26 | 219 | 6.4 | 19.3 | 0.00 | 0.00 | 0.00 | 37 | 1014.3 |
| 20260505183148 | 26 | 272 | 6.4 | 19.3 | 0.00 | 0.00 | 0.00 | 37 | 1014.3 |
| 20260505183050 | 26 | 167 | 4.8 | 19.3 | 0.00 | 0.00 | 0.00 | 38 | 1014.2 |
| 20260505183011 | 26 | 187 | 4.8 | 19.3 | 0.00 | 0.00 | 0.00 | 38 | 1014.2 |
| 20260505182948 | 26 | 232 | 4.8 | 19.3 | 0.00 | 0.00 | 0.00 | 37 | 1014.2 |
| 20260505182850 | 26 | 115 | 4.8 | 19.3 | 0.00 | 0.00 | 0.00 | 38 | 1014.2 |
| 20260505182748 | 26 | 102 | 4.8 | 19.3 | 0.00 | 0.00 | 0.00 | 37 | 1014.2 |
| 20260505182649 | 26 | 99 | 4.8 | 19.3 | 0.00 | 0.00 | 0.00 | 36 | 1014.3 |
| 20260505182549 | 26 | 159 | 4.8 | 19.3 | 0.00 | 0.00 | 0.00 | 36 | 1014.3 |
| 20260505182510 | 26 | 107 | 4.8 | 19.3 | 0.00 | 0.00 | 0.00 | 35 | 1014.3 |
| 20260505182450 | 26 | 111 | 4.8 | 19.3 | 0.00 | 0.00 | 0.00 | 37 | 1014.3 |
| 20260505182350 | 26 | 128 | 3.2 | 12.9 | 0.00 | 0.00 | 0.00 | 36 | 1014.3 |
| 20260505182248 | 26 | 109 | 3.2 | 11.3 | 0.00 | 0.00 | 0.00 | 36 | 1014.3 |
| 20260505182149 | 26 | 225 | 3.2 | 11.3 | 0.00 | 0.00 | 0.00 | 37 | 1014.3 |
| 20260505182056 | 26 | 145 | 3.2 | 14.5 | 0.00 | 0.00 | 0.00 | 39 | 1014.4 |
| 20260505182050 | 27 | 157 | 3.2 | 9.7 | 0.00 | 0.00 | 0.00 | 37 | 1014.3 |
| 20260505182033 | 27 | 105 | 3.2 | 11.3 | 0.00 | 0.00 | 0.00 | 37 | 1014.4 |
| 20260505182026 | 27 | 94 | 3.2 | 11.3 | 0.00 | 0.00 | 0.00 | 37 | 1014.4 |
| 20260505181905 | 26 | 149 | 3.2 | 11.3 | 0.00 | 0.00 | 0.00 | 38 | 1014.3 |
| 20260505181717 | 26 | 25 | 3.2 | 14.5 | 0.00 | 0.00 | 0.00 | 39 | 1014.3 |
| 20260505181707 | 26 | 121 | 3.2 | 14.5 | 0.00 | 0.00 | 0.00 | 39 | 1014.3 |
| 20260505181510 | 26 | 141 | 3.2 | 14.5 | 0.00 | 0.00 | 0.00 | 38 | 1014.1 |
| 20260505181449 | 26 | 178 | 3.2 | 14.5 | 0.00 | 0.00 | 0.00 | 38 | 1014.1 |
| 20260505181350 | 26 | 244 | 3.2 | 14.5 | 0.00 | 0.00 | 0.00 | 37 | 1014.2 |
| 20260505181248 | 26 | 157 | 3.2 | 14.5 | 0.00 | 0.00 | 0.00 | 38 | 1014.2 |
| 20260505181150 | 26 | 151 | 4.8 | 14.5 | 0.00 | 0.00 | 0.00 | 37 | 1014.2 |
| 20260505181048 | 26 | 96 | 3.2 | 14.5 | 0.00 | 0.00 | 0.00 | 37 | 1014.3 |
| 20260505181008 | 26 | 105 | 3.2 | 14.5 | 0.00 | 0.00 | 0.00 | 36 | 1014.3 |
| 20260505180950 | 26 | 134 | 3.2 | 14.5 | 0.00 | 0.00 | 0.00 | 36 | 1014.3 |
| 20260505180849 | 26 | 121 | 3.2 | 14.5 | 0.00 | 0.00 | 0.00 | 36 | 1014.3 |
| 20260505180749 | 26 | 246 | 3.2 | 11.3 | 0.00 | 0.00 | 0.00 | 37 | 1014.4 |
| 20260505180651 | 26 | 164 | 3.2 | 11.3 | 0.00 | 0.00 | 0.00 | 39 | 1014.3 |
| 20260505180547 | 26 | 127 | 3.2 | 11.3 | 0.00 | 0.00 | 0.00 | 39 | 1014.4 |
| 20260505180522 | 26 | 245 | 3.2 | 11.3 | 0.00 | 0.00 | 0.00 | 40 | 1014.3 |
| 20260505180514 | 26 | 164 | 3.2 | 11.3 | 0.00 | 0.00 | 0.00 | 39 | 1014.3 |
| 20260505180506 | 26 | 187 | 3.2 | 11.3 | 0.00 | 0.00 | 0.00 | 39 | 1014.3 |
| 20260505180247 | 26 | 201 | 3.2 | 11.3 | 0.00 | 0.00 | 0.00 | 37 | 1014.3 |
| 20260505180147 | 26 | 211 | 3.2 | 11.3 | 0.00 | 0.00 | 0.00 | 38 | 1014.3 |
| 20260505180123 | 26 | 290 | 3.2 | 11.3 | 0.00 | 0.00 | 0.00 | 38 | 1014.4 |
| 20260505180118 | 26 | 162 | 3.2 | 8.0 | 0.00 | 0.00 | 0.00 | 43 | 1014.5 |
| 20260505180108 | 26 | 116 | 3.2 | 11.3 | 0.00 | 0.00 | 0.00 | 38 | 1014.3 |
| 20260505180054 | 26 | 229 | 3.2 | 11.3 | 0.00 | 0.00 | 0.00 | 38 | 1014.4 |
| 20260505175844 | 26 | 219 | 3.2 | 11.3 | 0.00 | 0.00 | 0.00 | 37 | 1014.4 |
| 20260505175741 | 26 | 118 | 3.2 | 11.3 | 0.00 | 0.00 | 0.00 | 39 | 1014.4 |
| 20260505175734 | 26 | 186 | 3.2 | 8.0 | 0.00 | 0.00 | 0.00 | 43 | 1014.5 |
| 20260505175717 | 26 | 103 | 3.2 | 11.3 | 0.00 | 0.00 | 0.00 | 41 | 1014.5 |
| 20260505175700 | 26 | 137 | 3.2 | 8.0 | 0.00 | 0.00 | 0.00 | 43 | 1014.5 |
| 20260505175336 | 26 | 286 | 3.2 | 8.0 | 0.00 | 0.00 | 0.00 | 40 | 1014.4 |
| 20260505175305 | 26 | 111 | 3.2 | 8.0 | 0.00 | 0.00 | 0.00 | 40 | 1014.5 |
| 20260505175253 | 26 | 230 | 3.2 | 8.0 | 0.00 | 0.00 | 0.00 | 41 | 1014.5 |
| 20260505175036 | 26 | 152 | 3.2 | 8.0 | 0.00 | 0.00 | 0.00 | 41 | 1014.6 |
| 20260505175017 | 26 | 128 | 3.2 | 12.9 | 0.00 | 0.00 | 0.00 | 40 | 1014.8 |
| 20260505175010 | 26 | 188 | 3.2 | 8.0 | 0.00 | 0.00 | 0.00 | 41 | 1014.6 |
| 20260505174935 | 26 | 278 | 3.2 | 8.0 | 0.00 | 0.00 | 0.00 | 40 | 1014.6 |
| 20260505174836 | 26 | 207 | 3.2 | 12.9 | 0.00 | 0.00 | 0.00 | 40 | 1014.7 |
| 20260505174808 | 26 | 113 | 3.2 | 12.9 | 0.00 | 0.00 | 0.00 | 40 | 1014.8 |
| 20260505174756 | 26 | 118 | 3.2 | 12.9 | 0.00 | 0.00 | 0.00 | 40 | 1014.7 |
| 20260505174620 | 26 | 153 | 3.2 | 12.9 | 0.00 | 0.00 | 0.00 | 40 | 1014.8 |
| 20260505174431 | 26 | 148 | 3.2 | 14.5 | 0.00 | 0.00 | 0.00 | 42 | 1014.8 |
| 20260505174331 | 26 | 176 | 4.8 | 14.5 | 0.00 | 0.00 | 0.00 | 41 | 1014.7 |
| 20260505174231 | 26 | 109 | 4.8 | 14.5 | 0.00 | 0.00 | 0.00 | 41 | 1014.8 |
| 20260505174157 | 26 | 106 | 4.8 | 14.5 | 0.00 | 0.00 | 0.00 | 40 | 1014.8 |
| 20260505174146 | 26 | 123 | 4.8 | 14.5 | 0.00 | 0.00 | 0.00 | 40 | 1014.8 |
| 20260505174008 | 26 | 234 | 3.2 | 14.5 | 0.00 | 0.00 | 0.00 | 40 | 1014.8 |
| 20260505173930 | 26 | 229 | 3.2 | 14.5 | 0.00 | 0.00 | 0.00 | 40 | 1014.8 |
| 20260505173827 | 26 | 123 | 3.2 | 14.5 | 0.00 | 0.00 | 0.00 | 41 | 1014.8 |
| 20260505173726 | 26 | 85 | 3.2 | 14.5 | 0.00 | 0.00 | 0.00 | 40 | 1015.0 |
| 20260505173628 | 26 | 130 | 3.2 | 14.5 | 0.00 | 0.00 | 0.00 | 40 | 1015.0 |
| 20260505173559 | 26 | 68 | 3.2 | 11.3 | 0.00 | 0.00 | 0.00 | 41 | 1014.9 |
| 20260505173547 | 26 | 120 | 3.2 | 14.5 | 0.00 | 0.00 | 0.00 | 41 | 1015.0 |
| 20260505173537 | 26 | 109 | 3.2 | 14.5 | 0.00 | 0.00 | 0.00 | 40 | 1014.9 |
| 20260505173325 | 26 | 84 | 3.2 | 12.9 | 0.00 | 0.00 | 0.00 | 43 | 1015.0 |
| 20260505173225 | 26 | 88 | 3.2 | 12.9 | 0.00 | 0.00 | 0.00 | 44 | 1015.0 |
| 20260505173125 | 26 | 128 | 3.2 | 12.9 | 0.00 | 0.00 | 0.00 | 43 | 1015.0 |
| 20260505173025 | 26 | 102 | 3.2 | 12.9 | 0.00 | 0.00 | 0.00 | 43 | 1015.0 |
| 20260505173014 | 26 | 130 | 3.2 | 12.9 | 0.00 | 0.00 | 0.00 | 41 | 1015.1 |
| 20260505173007 | 26 | 141 | 3.2 | 12.9 | 0.00 | 0.00 | 0.00 | 41 | 1014.9 |
| 20260505172925 | 26 | 115 | 3.2 | 12.9 | 0.00 | 0.00 | 0.00 | 41 | 1014.9 |
| 20260505172852 | 26 | 200 | 3.2 | 12.9 | 0.00 | 0.00 | 0.00 | 41 | 1015.0 |
| 20260505172843 | 26 | 125 | 3.2 | 12.9 | 0.00 | 0.00 | 0.00 | 41 | 1015.0 |
| 20260505172633 | 26 | 213 | 3.2 | 12.9 | 0.00 | 0.00 | 0.00 | 41 | 1015.0 |
| 20260505172617 | 26 | 254 | 3.2 | 12.9 | 0.00 | 0.00 | 0.00 | 41 | 1015.1 |
| 20260505172426 | 26 | 217 | 3.2 | 12.9 | 0.00 | 0.00 | 0.00 | 40 | 1015.1 |
| 20260505172325 | 26 | 117 | 3.2 | 12.9 | 0.00 | 0.00 | 0.00 | 40 | 1015.1 |
| 20260505172223 | 26 | 207 | 3.2 | 12.9 | 0.00 | 0.00 | 0.00 | 42 | 1015.2 |
| 20260505172148 | 26 | 130 | 3.2 | 11.3 | 0.00 | 0.00 | 0.00 | 43 | 1015.1 |
| 20260505172140 | 26 | 219 | 3.2 | 12.9 | 0.00 | 0.00 | 0.00 | 42 | 1015.2 |
| 20260505172006 | 26 | 140 | 3.2 | 11.3 | 0.00 | 0.00 | 0.00 | 43 | 1015.1 |
| 20260505171923 | 26 | 113 | 3.2 | 11.3 | 0.00 | 0.00 | 0.00 | 41 | 1015.1 |
| 20260505171824 | 26 | 277 | 3.2 | 11.3 | 0.00 | 0.00 | 0.00 | 41 | 1015.2 |
| 20260505171723 | 26 | 209 | 3.2 | 12.9 | 0.00 | 0.00 | 0.00 | 42 | 1015.2 |
| 20260505171623 | 26 | 219 | 4.8 | 12.9 | 0.00 | 0.00 | 0.00 | 41 | 1015.2 |
| 20260505171522 | 26 | 265 | 4.8 | 16.1 | 0.00 | 0.00 | 0.00 | 40 | 1015.1 |
| 20260505171507 | 26 | 223 | 4.8 | 16.1 | 0.00 | 0.00 | 0.00 | 40 | 1015.2 |
| 20260505171424 | 26 | 118 | 4.8 | 16.1 | 0.00 | 0.00 | 0.00 | 41 | 1015.2 |
| 20260505171323 | 26 | 217 | 6.4 | 17.7 | 0.00 | 0.00 | 0.00 | 40 | 1015.2 |
| 20260505171223 | 26 | 256 | 4.8 | 17.7 | 0.00 | 0.00 | 0.00 | 41 | 1015.3 |
| 20260505171128 | 26 | 123 | 4.8 | 17.7 | 0.00 | 0.00 | 0.00 | 40 | 1015.3 |
| 20260505171123 | 26 | 248 | 4.8 | 17.7 | 0.00 | 0.00 | 0.00 | 40 | 1015.3 |
| 20260505171115 | 26 | 165 | 4.8 | 17.7 | 0.00 | 0.00 | 0.00 | 40 | 1015.4 |
| 20260505171101 | 26 | 133 | 4.8 | 17.7 | 0.00 | 0.00 | 0.00 | 41 | 1015.4 |
| 20260505171051 | 26 | 108 | 4.8 | 17.7 | 0.00 | 0.00 | 0.00 | 41 | 1015.4 |
| 20260505170722 | 26 | 143 | 4.8 | 17.7 | 0.00 | 0.00 | 0.00 | 40 | 1015.3 |
| 20260505170623 | 26 | 182 | 3.2 | 17.7 | 0.00 | 0.00 | 0.00 | 43 | 1015.3 |
| 20260505170522 | 26 | 224 | 3.2 | 17.7 | 0.00 | 0.00 | 0.00 | 41 | 1015.2 |
| 20260505170507 | 26 | 226 | 3.2 | 17.7 | 0.00 | 0.00 | 0.00 | 41 | 1015.2 |
| 20260505170421 | 26 | 129 | 3.2 | 17.7 | 0.00 | 0.00 | 0.00 | 42 | 1015.2 |
| 20260505170347 | 26 | 141 | 3.2 | 9.7 | 0.00 | 0.00 | 0.00 | 43 | 1015.2 |
| 20260505170338 | 26 | 210 | 3.2 | 9.7 | 0.00 | 0.00 | 0.00 | 41 | 1015.1 |
| 20260505170146 | 26 | 249 | 3.2 | 14.5 | 0.00 | 0.00 | 0.00 | 41 | 1015.1 |
| 20260505170137 | 26 | 101 | 3.2 | 9.7 | 0.00 | 0.00 | 0.00 | 42 | 1015.2 |
| 20260505170007 | 26 | 242 | 3.2 | 14.5 | 0.00 | 0.00 | 0.00 | 41 | 1015.1 |
| 20260505165918 | 26 | 167 | 3.2 | 14.5 | 0.00 | 0.00 | 0.00 | 41 | 1015.1 |
| 20260505165818 | 26 | 225 | 3.2 | 14.5 | 0.00 | 0.00 | 0.00 | 41 | 1015.2 |
| 20260505165718 | 26 | 163 | 3.2 | 14.5 | 0.00 | 0.00 | 0.00 | 41 | 1015.2 |
| 20260505165619 | 26 | 242 | 4.8 | 16.1 | 0.00 | 0.00 | 0.00 | 42 | 1015.2 |
| 20260505165519 | 26 | 246 | 3.2 | 16.1 | 0.00 | 0.00 | 0.00 | 42 | 1015.2 |
| 20260505165507 | 26 | 245 | 3.2 | 16.1 | 0.00 | 0.00 | 0.00 | 41 | 1015.2 |
| 20260505165445 | 26 | 280 | 3.2 | 16.1 | 0.00 | 0.00 | 0.00 | 43 | 1015.2 |
| 20260505165437 | 26 | 202 | 3.2 | 16.1 | 0.00 | 0.00 | 0.00 | 41 | 1015.3 |
| 20260505165235 | 25 | 299 | 1.6 | 14.5 | 0.00 | 0.00 | 0.00 | 49 | 1015.2 |
| 20260505165230 | 25 | 111 | 1.6 | 8.0 | 0.00 | 0.00 | 0.00 | 47 | 1015.2 |
| 20260505165221 | 26 | 191 | 3.2 | 16.1 | 0.00 | 0.00 | 0.00 | 42 | 1015.2 |
| 20260505165203 | 26 | 146 | 3.2 | 16.1 | 0.00 | 0.00 | 0.00 | 43 | 1015.2 |
| 20260505165046 | 25 | 114 | 1.6 | 8.0 | 0.00 | 0.00 | 0.00 | 48 | 1015.2 |
| 20260505165036 | 25 | 163 | 3.2 | 16.1 | 0.00 | 0.00 | 0.00 | 44 | 1015.2 |
| 20260505165027 | 25 | 145 | 3.2 | 16.1 | 0.00 | 0.00 | 0.00 | 44 | 1015.2 |
| 20260505165018 | 25 | 153 | 3.2 | 16.1 | 0.00 | 0.00 | 0.00 | 46 | 1015.2 |
| 20260505165008 | 25 | 266 | 3.2 | 16.1 | 0.00 | 0.00 | 0.00 | 47 | 1015.2 |
| 20260505164953 | 25 | 282 | 1.6 | 16.1 | 0.00 | 0.00 | 0.00 | 46 | 1015.3 |
| 20260505164555 | 25 | 229 | 1.6 | 8.0 | 0.00 | 0.00 | 0.00 | 48 | 1015.2 |
| 20260505164546 | 25 | 228 | 1.6 | 8.0 | 0.00 | 0.00 | 0.00 | 48 | 1015.2 |
| 20260505164213 | 25 | 104 | 1.6 | 8.0 | 0.00 | 0.00 | 0.00 | 48 | 1015.3 |
| 20260505164111 | 25 | 141 | 1.6 | 8.0 | 0.00 | 0.00 | 0.00 | 49 | 1015.3 |
| 20260505164013 | 25 | 126 | 1.6 | 8.0 | 0.00 | 0.00 | 0.00 | 50 | 1015.3 |
| 20260505164005 | 25 | 169 | 1.6 | 8.0 | 0.00 | 0.00 | 0.00 | 50 | 1015.3 |
| 20260505163911 | 25 | 114 | 1.6 | 8.0 | 0.00 | 0.00 | 0.00 | 51 | 1015.3 |
| 20260505163811 | 25 | 155 | 1.6 | 8.0 | 0.00 | 0.00 | 0.00 | 54 | 1015.3 |
| 20260505163709 | 25 | 244 | 3.2 | 8.0 | 0.00 | 0.00 | 0.00 | 52 | 1015.3 |
| 20260505163608 | 25 | 221 | 3.2 | 9.7 | 0.00 | 0.00 | 0.00 | 52 | 1015.3 |
| 20260505163507 | 25 | 148 | 3.2 | 9.7 | 0.00 | 0.00 | 0.00 | 53 | 1015.3 |
| 20260505163447 | 25 | 106 | 3.2 | 9.7 | 0.00 | 0.00 | 0.00 | 51 | 1015.1 |
| 20260505163434 | 24 | 251 | 3.2 | 9.7 | 0.00 | 0.00 | 0.00 | 52 | 1015.2 |
| 20260505163315 | 25 | 109 | 3.2 | 9.7 | 0.00 | 0.00 | 0.00 | 52 | 1015.2 |
| 20260505163308 | 24 | 272 | 3.2 | 9.7 | 0.00 | 0.00 | 0.00 | 51 | 1015.2 |
| 20260505163300 | 25 | 265 | 1.6 | 11.3 | 0.00 | 0.00 | 0.00 | 51 | 1015.1 |
| 20260505163247 | 24 | 106 | 3.2 | 9.7 | 0.00 | 0.00 | 0.00 | 50 | 1015.2 |
| 20260505163110 | 25 | 110 | 3.2 | 9.7 | 0.00 | 0.00 | 0.00 | 52 | 1015.2 |
| 20260505162906 | 25 | 120 | 3.2 | 9.7 | 0.00 | 0.00 | 0.00 | 51 | 1015.2 |
| 20260505162830 | 25 | 109 | 1.6 | 11.3 | 0.00 | 0.00 | 0.00 | 52 | 1015.1 |
| 20260505162822 | 25 | 106 | 3.2 | 11.3 | 0.00 | 0.00 | 0.00 | 51 | 1015.1 |
| 20260505162626 | 25 | 115 | 1.6 | 11.3 | 0.00 | 0.00 | 0.00 | 52 | 1015.2 |
| 20260505162504 | 25 | 266 | 1.6 | 11.3 | 0.00 | 0.00 | 0.00 | 51 | 1015.1 |
| 20260505162455 | 25 | 159 | 1.6 | 11.3 | 0.00 | 0.00 | 0.00 | 52 | 1015.2 |
| 20260505162450 | 25 | 152 | 1.6 | 11.3 | 0.00 | 0.00 | 0.00 | 52 | 1015.2 |
| 20260505162438 | 25 | 265 | 1.6 | 11.3 | 0.00 | 0.00 | 0.00 | 51 | 1015.2 |
| 20260505162106 | 25 | 173 | 1.6 | 11.3 | 0.00 | 0.00 | 0.00 | 51 | 1015.2 |
| 20260505162008 | 25 | 121 | 1.6 | 11.3 | 0.00 | 0.00 | 0.00 | 50 | 1015.2 |
| 20260505162004 | 25 | 118 | 1.6 | 11.3 | 0.00 | 0.00 | 0.00 | 50 | 1015.2 |
| 20260505161900 | 25 | 149 | 1.6 | 11.3 | 0.00 | 0.00 | 0.00 | 50 | 1015.1 |
| 20260505161802 | 25 | 195 | 1.6 | 9.7 | 0.00 | 0.00 | 0.00 | 50 | 1015.1 |
| 20260505161742 | 25 | 91 | 1.6 | 9.7 | 0.00 | 0.00 | 0.00 | 53 | 1015.0 |
| 20260505161729 | 25 | 148 | 1.6 | 9.7 | 0.00 | 0.00 | 0.00 | 51 | 1015.1 |
| 20260505161504 | 25 | 294 | 1.6 | 9.7 | 0.00 | 0.00 | 0.00 | 51 | 1015.1 |
| 20260505161459 | 25 | 294 | 1.6 | 9.7 | 0.00 | 0.00 | 0.00 | 52 | 1015.1 |
| 20260505161400 | 25 | 258 | 3.2 | 9.7 | 0.00 | 0.00 | 0.00 | 51 | 1015.1 |
| 20260505161258 | 25 | 242 | 3.2 | 9.7 | 0.00 | 0.00 | 0.00 | 52 | 1015.1 |
| 20260505161158 | 25 | 180 | 3.2 | 9.7 | 0.00 | 0.00 | 0.00 | 53 | 1015.1 |
| 20260505161129 | 24 | 241 | 3.2 | 9.7 | 0.00 | 0.00 | 0.00 | 53 | 1015.2 |
| 20260505161119 | 24 | 193 | 3.2 | 9.7 | 0.00 | 0.00 | 0.00 | 51 | 1015.2 |
| 20260505161102 | 24 | 241 | 3.2 | 9.7 | 0.00 | 0.00 | 0.00 | 53 | 1015.2 |
| 20260505160854 | 24 | 114 | 3.2 | 9.7 | 0.00 | 0.00 | 0.00 | 52 | 1015.2 |
| 20260505160823 | 24 | 146 | 3.2 | 9.7 | 0.00 | 0.00 | 0.00 | 52 | 1015.2 |
| 20260505160814 | 24 | 234 | 3.2 | 9.7 | 0.00 | 0.00 | 0.00 | 51 | 1015.2 |
| 20260505160629 | 24 | 99 | 3.2 | 9.7 | 0.00 | 0.00 | 0.00 | 51 | 1015.2 |
| 20260505160617 | 24 | 122 | 3.2 | 9.7 | 0.00 | 0.00 | 0.00 | 51 | 1015.2 |
| 20260505160601 | 24 | 111 | 3.2 | 9.7 | 0.00 | 0.00 | 0.00 | 51 | 1015.2 |
| 20260505160354 | 24 | 98 | 1.6 | 9.7 | 0.00 | 0.00 | 0.00 | 51 | 1015.2 |
| 20260505160256 | 24 | 76 | 1.6 | 9.7 | 0.00 | 0.00 | 0.00 | 52 | 1015.2 |
| 20260505160154 | 24 | 99 | 1.6 | 8.0 | 0.00 | 0.00 | 0.00 | 53 | 1015.2 |
| 20260505153144 | 23 | 114 | 0.0 | 3.2 | 0.00 | 0.00 | 0.00 | 56 | 1015.6 |
| 20260505153109 | 23 | 172 | 1.6 | 4.8 | 0.00 | 0.00 | 0.00 | 57 | 1015.6 |
| 20260505153058 | 23 | 136 | 0.0 | 4.8 | 0.00 | 0.00 | 0.00 | 57 | 1015.6 |
| 20260505153044 | 23 | 172 | 1.6 | 4.8 | 0.00 | 0.00 | 0.00 | 57 | 1015.6 |
| 20260505152836 | 23 | 275 | 1.6 | 4.8 | 0.00 | 0.00 | 0.00 | 57 | 1015.6 |
| 20260505152803 | 23 | 195 | 1.6 | 4.8 | 0.00 | 0.00 | 0.00 | 57 | 1015.7 |
| 20260505152754 | 23 | 275 | 1.6 | 4.8 | 0.00 | 0.00 | 0.00 | 58 | 1015.7 |
| 20260505152607 | 23 | 237 | 1.6 | 6.4 | 0.00 | 0.00 | 0.00 | 57 | 1015.7 |
| 20260505152557 | 23 | 188 | 1.6 | 6.4 | 0.00 | 0.00 | 0.00 | 57 | 1015.7 |
| 20260505152544 | 23 | 207 | 1.6 | 6.4 | 0.00 | 0.00 | 0.00 | 58 | 1015.7 |
| 20260505152336 | 22 | 119 | 1.6 | 6.4 | 0.00 | 0.00 | 0.00 | 56 | 1015.6 |
| 20260505152233 | 22 | 120 | 1.6 | 6.4 | 0.00 | 0.00 | 0.00 | 58 | 1015.6 |
| 20260505152133 | 22 | 120 | 1.6 | 6.4 | 0.00 | 0.00 | 0.00 | 58 | 1015.6 |
| 20260505152031 | 22 | 242 | 1.6 | 6.4 | 0.00 | 0.00 | 0.00 | 59 | 1015.6 |
| 20260505152002 | 22 | 339 | 1.6 | 6.4 | 0.00 | 0.00 | 0.00 | 59 | 1015.6 |
| 20260505151956 | 22 | 21 | 1.6 | 6.4 | 0.00 | 0.00 | 0.00 | 58 | 1015.6 |
| 20260505151948 | 22 | 335 | 1.6 | 6.4 | 0.00 | 0.00 | 0.00 | 59 | 1015.6 |
| 20260505151730 | 22 | 23 | 1.6 | 6.4 | 0.00 | 0.00 | 0.00 | 58 | 1015.6 |
| 20260505151626 | 22 | 340 | 1.6 | 6.4 | 0.00 | 0.00 | 0.00 | 60 | 1015.6 |
| 20260505151527 | 22 | 147 | 1.6 | 4.8 | 0.00 | 0.00 | 0.00 | 58 | 1015.6 |
| 20260505151504 | 22 | 148 | 1.6 | 4.8 | 0.00 | 0.00 | 0.00 | 58 | 1015.6 |
| 20260505151428 | 22 | 146 | 1.6 | 4.8 | 0.00 | 0.00 | 0.00 | 58 | 1015.6 |
| 20260505151351 | 22 | 13 | 1.6 | 4.8 | 0.00 | 0.00 | 0.00 | 59 | 1015.6 |
| 20260505151343 | 22 | 171 | 1.6 | 4.8 | 0.00 | 0.00 | 0.00 | 59 | 1015.6 |
| 20260505151123 | 22 | 342 | 1.6 | 4.8 | 0.00 | 0.00 | 0.00 | 60 | 1015.6 |
| 20260505151023 | 22 | 73 | 1.6 | 4.8 | 0.00 | 0.00 | 0.00 | 58 | 1015.7 |
| 20260505151003 | 22 | 89 | 0.0 | 4.8 | 0.00 | 0.00 | 0.00 | 60 | 1015.7 |
| 20260505150922 | 22 | 86 | 0.0 | 4.8 | 0.00 | 0.00 | 0.00 | 60 | 1015.7 |
| 20260505150823 | 22 | 107 | 0.0 | 4.8 | 0.00 | 0.00 | 0.00 | 58 | 1015.7 |
| 20260505150720 | 22 | 153 | 0.0 | 3.2 | 0.00 | 0.00 | 0.00 | 58 | 1015.6 |
| 20260505150622 | 22 | 121 | 0.0 | 3.2 | 0.00 | 0.00 | 0.00 | 59 | 1015.6 |
| 20260505150524 | 22 | 196 | 0.0 | 3.2 | 0.00 | 0.00 | 0.00 | 60 | 1015.6 |
| 20260505150517 | 22 | 323 | 0.0 | 6.4 | 0.00 | 0.00 | 0.00 | 60 | 1015.5 |
| 20260505150512 | 22 | 323 | 1.6 | 6.4 | 0.00 | 0.00 | 0.00 | 59 | 1015.5 |
| 20260505150504 | 22 | 215 | 0.0 | 6.4 | 0.00 | 0.00 | 0.00 | 60 | 1015.6 |
| 20260505150452 | 22 | 234 | 0.0 | 6.4 | 0.00 | 0.00 | 0.00 | 60 | 1015.5 |
| 20260505150122 | 22 | 332 | 1.6 | 6.4 | 0.00 | 0.00 | 0.00 | 59 | 1015.4 |
| 20260505140650 | 20 | 234 | 0.0 | 3.2 | 0.00 | 0.00 | 0.00 | 67 | 1015.8 |
| 20260505140635 | 20 | 193 | 0.0 | 3.2 | 0.00 | 0.00 | 0.00 | 64 | 1015.8 |
| 20260505140512 | 20 | 153 | 0.0 | 3.2 | 0.00 | 0.00 | 0.00 | 64 | 1015.8 |
| 20260505140507 | 20 | 154 | 0.0 | 3.2 | 0.00 | 0.00 | 0.00 | 64 | 1015.8 |
| 20260505140450 | 20 | 150 | 0.0 | 3.2 | 0.00 | 0.00 | 0.00 | 65 | 1015.8 |
| 20260505140336 | 20 | 234 | 0.0 | 3.2 | 0.00 | 0.00 | 0.00 | 66 | 1015.8 |
| 20260505140325 | 20 | 234 | 0.0 | 3.2 | 0.00 | 0.00 | 0.00 | 66 | 1015.8 |
| 20260505130217 | 15 | 146 | 0.0 | 3.2 | 0.00 | 0.00 | 0.00 | 78 | 1015.6 |
| 20260505130119 | 15 | 146 | 0.0 | 3.2 | 0.00 | 0.00 | 0.00 | 77 | 1015.6 |
| 20260505125000 | 13 | 16 | 0.0 | 3.2 | 0.00 | 0.00 | 0.00 | 83 | 1015.2 |
| 20260505124953 | 14 | 20 | 0.0 | 3.2 | 0.00 | 0.00 | 0.00 | 81 | 1015.4 |
| 20260505124908 | 14 | 135 | 0.0 | 3.2 | 0.00 | 0.00 | 0.00 | 81 | 1015.3 |
| 20260505124806 | 14 | 144 | 0.0 | 3.2 | 0.00 | 0.00 | 0.00 | 82 | 1015.3 |
| 20260505124752 | 13 | 16 | 0.0 | 3.2 | 0.00 | 0.00 | 0.00 | 83 | 1015.2 |
| 20260505124737 | 14 | 97 | 0.0 | 3.2 | 0.00 | 0.00 | 0.00 | 81 | 1015.3 |
| 20260505124720 | 13 | 146 | 0.0 | 3.2 | 0.00 | 0.00 | 0.00 | 82 | 1015.2 |
| 20260505124404 | 13 | 131 | 0.0 | 3.2 | 0.00 | 0.00 | 0.00 | 83 | 1015.2 |
| 20260505124302 | 13 | 129 | 0.0 | 3.2 | 0.00 | 0.00 | 0.00 | 83 | 1015.2 |
| 20260505124202 | 13 | 129 | 0.0 | 3.2 | 0.00 | 0.00 | 0.00 | 83 | 1015.3 |
| 20260505124101 | 13 | 129 | 0.0 | 3.2 | 0.00 | 0.00 | 0.00 | 83 | 1015.2 |
| 20260505123953 | 13 | 117 | 0.0 | 3.2 | 0.00 | 0.00 | 0.00 | 83 | 1015.3 |
| 20260505123859 | 13 | 117 | 0.0 | 3.2 | 0.00 | 0.00 | 0.00 | 83 | 1015.3 |
| 20260505123758 | 13 | 117 | 0.0 | 3.2 | 0.00 | 0.00 | 0.00 | 83 | 1015.3 |
| 20260505123658 | 13 | 142 | 0.0 | 1.6 | 0.00 | 0.00 | 0.00 | 84 | 1015.3 |
| 20260505123558 | 13 | 142 | 0.0 | 1.6 | 0.00 | 0.00 | 0.00 | 84 | 1015.3 |
| 20260505123456 | 13 | 121 | 0.0 | 0.0 | 0.00 | 0.00 | 0.00 | 84 | 1015.2 |
| 20260505123355 | 13 | 121 | 0.0 | 0.0 | 0.00 | 0.00 | 0.00 | 84 | 1015.2 |
| 20260505123255 | 13 | 121 | 0.0 | 0.0 | 0.00 | 0.00 | 0.00 | 84 | 1015.2 |
| 20260505123155 | 13 | 121 | 0.0 | 0.0 | 0.00 | 0.00 | 0.00 | 84 | 1015.2 |
| 20260505123055 | 13 | 121 | 0.0 | 0.0 | 0.00 | 0.00 | 0.00 | 84 | 1015.2 |
| 20260505122952 | 13 | 121 | 0.0 | 0.0 | 0.00 | 0.00 | 0.00 | 85 | 1015.1 |
| 20260505122853 | 13 | 121 | 0.0 | 0.0 | 0.00 | 0.00 | 0.00 | 85 | 1015.1 |
| 20260505122750 | 12 | 121 | 0.0 | 0.0 | 0.00 | 0.00 | 0.00 | 85 | 1015.1 |
| 20260505122652 | 12 | 121 | 0.0 | 0.0 | 0.00 | 0.00 | 0.00 | 85 | 1015.1 |
| 20260505122550 | 12 | 121 | 0.0 | 0.0 | 0.00 | 0.00 | 0.00 | 85 | 1015.1 |
| 20260505122448 | 12 | 121 | 0.0 | 0.0 | 0.00 | 0.00 | 0.00 | 84 | 1015.2 |
| 20260505122348 | 12 | 121 | 0.0 | 0.0 | 0.00 | 0.00 | 0.00 | 84 | 1015.2 |
| 20260505122312 | 12 | 121 | 0.0 | 0.0 | 0.00 | 0.00 | 0.00 | 84 | 1015.2 |
| 20260505122305 | 12 | 121 | 0.0 | 0.0 | 0.00 | 0.00 | 0.00 | 84 | 1015.2 |
| 20260505122046 | 12 | 121 | 0.0 | 0.0 | 0.00 | 0.00 | 0.00 | 85 | 1015.2 |
| 20260505121945 | 12 | 121 | 0.0 | 0.0 | 0.00 | 0.00 | 0.00 | 85 | 1015.2 |
| 20260505121844 | 12 | 121 | 0.0 | 0.0 | 0.00 | 0.00 | 0.00 | 85 | 1015.2 |
| 20260505121743 | 12 | 121 | 0.0 | 0.0 | 0.00 | 0.00 | 0.00 | 85 | 1015.1 |
| 20260505121708 | 12 | 121 | 0.0 | 0.0 | 0.00 | 0.00 | 0.00 | 85 | 1015.0 |
| 20260505121658 | 12 | 121 | 0.0 | 0.0 | 0.00 | 0.00 | 0.00 | 85 | 1015.1 |
| 20260505121440 | 12 | 121 | 0.0 | 0.0 | 0.00 | 0.00 | 0.00 | 86 | 1015.0 |
| 20260505121339 | 12 | 121 | 0.0 | 1.6 | 0.00 | 0.00 | 0.00 | 86 | 1015.0 |
| 20260505121238 | 12 | 121 | 0.0 | 1.6 | 0.00 | 0.00 | 0.00 | 86 | 1015.0 |
| 20260505121139 | 12 | 121 | 0.0 | 1.6 | 0.00 | 0.00 | 0.00 | 87 | 1014.9 |
| 20260505121039 | 12 | 121 | 0.0 | 1.6 | 0.00 | 0.00 | 0.00 | 87 | 1014.9 |
| 20260505121002 | 11 | 119 | 0.0 | 1.6 | 0.00 | 0.00 | 0.00 | 90 | 1014.9 |
| 20260505120937 | 12 | 121 | 0.0 | 1.6 | 0.00 | 0.00 | 0.00 | 87 | 1014.9 |
| 20260505120836 | 12 | 121 | 0.0 | 1.6 | 0.00 | 0.00 | 0.00 | 88 | 1014.9 |
| 20260505120734 | 12 | 121 | 0.0 | 1.6 | 0.00 | 0.00 | 0.00 | 88 | 1014.9 |
| 20260505120634 | 12 | 121 | 0.0 | 1.6 | 0.00 | 0.00 | 0.00 | 88 | 1014.9 |
| 20260505120628 | 11 | 120 | 0.0 | 1.6 | 0.00 | 0.00 | 0.00 | 89 | 1014.9 |
| 20260505120614 | 12 | 121 | 0.0 | 1.6 | 0.00 | 0.00 | 0.00 | 89 | 1014.8 |
| 20260505120455 | 12 | 121 | 0.0 | 1.6 | 0.00 | 0.00 | 0.00 | 89 | 1014.9 |
| 20260505120447 | 11 | 120 | 0.0 | 1.6 | 0.00 | 0.00 | 0.00 | 89 | 1014.9 |
| 20260505120257 | 11 | 120 | 0.0 | 1.6 | 0.00 | 0.00 | 0.00 | 90 | 1014.9 |
| 20260505120248 | 11 | 119 | 0.0 | 1.6 | 0.00 | 0.00 | 0.00 | 90 | 1014.9 |
| 20260505120105 | 11 | 120 | 0.0 | 1.6 | 0.00 | 0.00 | 0.00 | 90 | 1014.9 |
| 20260505115927 | 11 | 119 | 0.0 | 1.6 | 0.00 | 0.00 | 0.00 | 91 | 1014.9 |
| 20260505115916 | 11 | 120 | 0.0 | 0.0 | 0.00 | 0.00 | 0.00 | 91 | 1014.9 |
| 20260505115912 | 11 | 120 | 0.0 | 0.0 | 0.00 | 0.00 | 0.00 | 92 | 1015.0 |
| 20260505115900 | 11 | 120 | 0.0 | 0.0 | 0.00 | 0.00 | 0.00 | 91 | 1014.9 |
| 20260505115526 | 11 | 120 | 0.0 | 0.0 | 0.00 | 0.00 | 0.00 | 92 | 1014.9 |
| 20260505115453 | 11 | 119 | 0.0 | 0.0 | 0.00 | 0.00 | 0.00 | 92 | 1014.9 |
| 20260505115423 | 11 | 120 | 0.0 | 0.0 | 0.00 | 0.00 | 0.00 | 92 | 1014.9 |
| 20260505115323 | 11 | 119 | 0.0 | 0.0 | 0.00 | 0.00 | 0.00 | 92 | 1014.9 |
| 20260505115223 | 10 | 120 | 0.0 | 0.0 | 0.00 | 0.00 | 0.00 | 93 | 1014.8 |
| 20260505115123 | 10 | 120 | 0.0 | 0.0 | 0.00 | 0.00 | 0.00 | 93 | 1014.9 |
| 20260505115023 | 10 | 120 | 0.0 | 0.0 | 0.00 | 0.00 | 0.00 | 93 | 1014.8 |
| 20260505114923 | 10 | 120 | 0.0 | 0.0 | 0.00 | 0.00 | 0.00 | 93 | 1014.8 |
| 20260505114823 | 10 | 120 | 0.0 | 0.0 | 0.00 | 0.00 | 0.00 | 93 | 1014.8 |
| 20260505114724 | 10 | 119 | 0.0 | 0.0 | 0.00 | 0.00 | 0.00 | 93 | 1014.9 |
| 20260505114624 | 10 | 120 | 0.0 | 0.0 | 0.00 | 0.00 | 0.00 | 93 | 1014.8 |
| 20260505114524 | 10 | 120 | 0.0 | 0.0 | 0.00 | 0.00 | 0.00 | 93 | 1014.9 |
| 20260505114451 | 10 | 120 | 0.0 | 0.0 | 0.00 | 0.00 | 0.00 | 94 | 1014.9 |
| 20260505114424 | 10 | 119 | 0.0 | 0.0 | 0.00 | 0.00 | 0.00 | 94 | 1014.9 |
| 20260505114323 | 10 | 119 | 0.0 | 0.0 | 0.00 | 0.00 | 0.00 | 94 | 1014.9 |
| 20260505114221 | 10 | 119 | 0.0 | 0.0 | 0.00 | 0.00 | 0.00 | 94 | 1014.9 |
| 20260505114122 | 9 | 119 | 0.0 | 0.0 | 0.00 | 0.00 | 0.00 | 94 | 1014.9 |
| 20260505114020 | 9 | 119 | 0.0 | 0.0 | 0.00 | 0.00 | 0.00 | 94 | 1015.0 |
| 20260505113951 | 9 | 119 | 0.0 | 0.0 | 0.00 | 0.00 | 0.00 | 94 | 1015.0 |
| 20260505113920 | 9 | 119 | 0.0 | 0.0 | 0.00 | 0.00 | 0.00 | 94 | 1014.9 |
| 20260505113842 | 9 | 119 | 0.0 | 0.0 | 0.00 | 0.00 | 0.00 | 94 | 1014.8 |
| 20260505113834 | 9 | 120 | 0.0 | 0.0 | 0.00 | 0.00 | 0.00 | 94 | 1014.9 |
| 20260505113618 | 9 | 119 | 0.0 | 0.0 | 0.00 | 0.00 | 0.00 | 94 | 1014.9 |
| 20260505113517 | 9 | 120 | 0.0 | 0.0 | 0.00 | 0.00 | 0.00 | 94 | 1014.8 |
| 20260505113452 | 8 | 119 | 0.0 | 0.0 | 0.00 | 0.00 | 0.00 | 94 | 1014.8 |
| 20260505113417 | 8 | 120 | 0.0 | 0.0 | 0.00 | 0.00 | 0.00 | 94 | 1014.8 |
| 20260505113315 | 8 | 120 | 0.0 | 0.0 | 0.00 | 0.00 | 0.00 | 94 | 1014.7 |
| 20260505113213 | 8 | 119 | 0.0 | 0.0 | 0.00 | 0.00 | 0.00 | 94 | 1014.7 |
| 20260505113114 | 8 | 119 | 0.0 | 0.0 | 0.00 | 0.00 | 0.00 | 94 | 1014.7 |
| 20260505113012 | 8 | 119 | 0.0 | 0.0 | 0.00 | 0.00 | 0.00 | 94 | 1014.7 |
| 20260505112952 | 8 | 119 | 0.0 | 0.0 | 0.00 | 0.00 | 0.00 | 94 | 1014.7 |
| 20260505112912 | 8 | 120 | 0.0 | 0.0 | 0.00 | 0.00 | 0.00 | 94 | 1014.6 |
| 20260505112833 | 8 | 120 | 0.0 | 0.0 | 0.00 | 0.00 | 0.00 | 94 | 1014.6 |
| 20260505112826 | 8 | 120 | 0.0 | 0.0 | 0.00 | 0.00 | 0.00 | 94 | 1014.7 |
| 20260505112612 | 8 | 120 | 0.0 | 0.0 | 0.00 | 0.00 | 0.00 | 94 | 1014.6 |
| 20260505112511 | 8 | 120 | 0.0 | 0.0 | 0.00 | 0.00 | 0.00 | 94 | 1014.5 |
| 20260505112452 | 8 | 119 | 0.0 | 0.0 | 0.00 | 0.00 | 0.00 | 94 | 1014.5 |
| 20260505112410 | 8 | 120 | 0.0 | 0.0 | 0.00 | 0.00 | 0.00 | 94 | 1014.5 |
| 20260505112310 | 8 | 119 | 0.0 | 0.0 | 0.00 | 0.00 | 0.00 | 94 | 1014.4 |
| 20260505112210 | 8 | 119 | 0.0 | 0.0 | 0.00 | 0.00 | 0.00 | 94 | 1014.4 |
| 20260505112109 | 8 | 120 | 0.0 | 0.0 | 0.00 | 0.00 | 0.00 | 94 | 1014.4 |
| 20260505112007 | 8 | 120 | 0.0 | 0.0 | 0.00 | 0.00 | 0.00 | 94 | 1014.3 |
| 20260505111949 | 8 | 120 | 0.0 | 0.0 | 0.00 | 0.00 | 0.00 | 94 | 1014.3 |
| 20260505111908 | 8 | 120 | 0.0 | 0.0 | 0.00 | 0.00 | 0.00 | 94 | 1014.3 |
| 20260505111830 | 8 | 119 | 0.0 | 0.0 | 0.00 | 0.00 | 0.00 | 94 | 1014.3 |
| 20260505111822 | 8 | 119 | 0.0 | 0.0 | 0.00 | 0.00 | 0.00 | 94 | 1014.3 |
| 20260505111631 | 8 | 120 | 0.0 | 0.0 | 0.00 | 0.00 | 0.00 | 94 | 1014.3 |
| 20260505111622 | 8 | 120 | 0.0 | 0.0 | 0.00 | 0.00 | 0.00 | 94 | 1014.3 |
| 20260505111449 | 8 | 119 | 0.0 | 0.0 | 0.00 | 0.00 | 0.00 | 94 | 1014.3 |
| 20260505111406 | 8 | 120 | 0.0 | 0.0 | 0.00 | 0.00 | 0.00 | 94 | 1014.3 |
| 20260505111306 | 8 | 120 | 0.0 | 0.0 | 0.00 | 0.00 | 0.00 | 94 | 1014.3 |
| 20260505111234 | 8 | 119 | 0.0 | 0.0 | 0.00 | 0.00 | 0.00 | 94 | 1014.3 |
| 20260505111224 | 8 | 120 | 0.0 | 0.0 | 0.00 | 0.00 | 0.00 | 94 | 1014.3 |
| 20260505111005 | 8 | 119 | 0.0 | 0.0 | 0.00 | 0.00 | 0.00 | 94 | 1014.3 |
| 20260505110956 | 7 | 119 | 0.0 | 0.0 | 0.00 | 0.00 | 0.00 | 94 | 1014.2 |
| 20260505110949 | 8 | 120 | 0.0 | 0.0 | 0.00 | 0.00 | 0.00 | 94 | 1014.3 |
| 20260505110905 | 7 | 120 | 0.0 | 0.0 | 0.00 | 0.00 | 0.00 | 94 | 1014.3 |
| 20260505110805 | 7 | 120 | 0.0 | 0.0 | 0.00 | 0.00 | 0.00 | 94 | 1014.3 |
| 20260505110745 | 7 | 119 | 0.0 | 0.0 | 0.00 | 0.00 | 0.00 | 94 | 1014.2 |
| 20260505110733 | 7 | 120 | 0.0 | 0.0 | 0.00 | 0.00 | 0.00 | 94 | 1014.2 |
| 20260505110717 | 7 | 119 | 0.0 | 0.0 | 0.00 | 0.00 | 0.00 | 94 | 1014.2 |
| 20260505110405 | 7 | 119 | 0.0 | 0.0 | 0.00 | 0.00 | 0.00 | 93 | 1014.2 |
| 20260505110303 | 7 | 119 | 0.0 | 0.0 | 0.00 | 0.00 | 0.00 | 93 | 1014.2 |
| 20260505110204 | 7 | 120 | 0.0 | 0.0 | 0.00 | 0.00 | 0.00 | 93 | 1014.2 |
| 20260505110104 | 7 | 120 | 0.0 | 0.0 | 0.00 | 0.00 | 0.00 | 93 | 1014.2 |
| 20260505102137 | 7 | 120 | 0.0 | 0.0 | 0.00 | 0.00 | 0.00 | 93 | 1014.2 |
| 20260505102035 | 7 | 119 | 0.0 | 0.0 | 0.00 | 0.00 | 0.00 | 93 | 1014.2 |
| 20260505101935 | 7 | 119 | 0.0 | 0.0 | 0.00 | 0.00 | 0.00 | 93 | 1014.1 |
| 20260505101836 | 7 | 120 | 0.0 | 0.0 | 0.00 | 0.00 | 0.00 | 93 | 1014.1 |
| 20260505101737 | 8 | 119 | 0.0 | 0.0 | 0.00 | 0.00 | 0.00 | 93 | 1014.1 |
| 20260505101636 | 8 | 119 | 0.0 | 0.0 | 0.00 | 0.00 | 0.00 | 93 | 1014.1 |
| 20260505101536 | 8 | 119 | 0.0 | 0.0 | 0.00 | 0.00 | 0.00 | 93 | 1014.1 |
| 20260505101508 | 8 | 119 | 0.0 | 0.0 | 0.00 | 0.00 | 0.00 | 93 | 1014.1 |
| 20260505101458 | 8 | 120 | 0.0 | 0.0 | 0.00 | 0.00 | 0.00 | 93 | 1014.1 |
| 20260505101451 | 8 | 119 | 0.0 | 0.0 | 0.00 | 0.00 | 0.00 | 93 | 1014.1 |
| 20260505101237 | 8 | 120 | 0.0 | 0.0 | 0.00 | 0.00 | 0.00 | 93 | 1014.1 |
| 20260505101136 | 8 | 119 | 0.0 | 0.0 | 0.00 | 0.00 | 0.00 | 93 | 1014.0 |
| 20260505101035 | 8 | 120 | 0.0 | 0.0 | 0.00 | 0.00 | 0.00 | 93 | 1014.0 |
| 20260505100935 | 8 | 120 | 0.0 | 0.0 | 0.00 | 0.00 | 0.00 | 93 | 1014.0 |
| 20260505100835 | 8 | 119 | 0.0 | 0.0 | 0.00 | 0.00 | 0.00 | 93 | 1014.1 |
| 20260505100736 | 8 | 120 | 0.0 | 0.0 | 0.00 | 0.00 | 0.00 | 93 | 1014.1 |
| 20260505100636 | 8 | 119 | 0.0 | 0.0 | 0.00 | 0.00 | 0.00 | 93 | 1014.1 |
| 20260505100536 | 8 | 119 | 0.0 | 0.0 | 0.00 | 0.00 | 0.00 | 93 | 1014.1 |
| 20260505100435 | 8 | 119 | 0.0 | 0.0 | 0.00 | 0.00 | 0.00 | 93 | 1014.1 |
| 20260505100336 | 8 | 120 | 0.0 | 0.0 | 0.00 | 0.00 | 0.00 | 93 | 1014.1 |
| 20260505100237 | 8 | 120 | 0.0 | 0.0 | 0.00 | 0.00 | 0.00 | 93 | 1014.0 |
| 20260505100136 | 8 | 120 | 0.0 | 0.0 | 0.00 | 0.00 | 0.00 | 93 | 1014.0 |
| 20260505100037 | 8 | 120 | 0.0 | 0.0 | 0.00 | 0.00 | 0.00 | 93 | 1014.0 |
| 20260505095934 | 8 | 120 | 0.0 | 0.0 | 0.00 | 0.00 | 0.00 | 93 | 1014.0 |
| 20260505095834 | 8 | 119 | 0.0 | 0.0 | 0.00 | 0.00 | 0.00 | 93 | 1014.0 |
| 20260505095733 | 8 | 120 | 0.0 | 0.0 | 0.00 | 0.00 | 0.00 | 93 | 1013.9 |
| 20260505095633 | 8 | 120 | 0.0 | 0.0 | 0.00 | 0.00 | 0.00 | 93 | 1013.9 |
| 20260505095533 | 8 | 119 | 0.0 | 0.0 | 0.00 | 0.00 | 0.00 | 93 | 1013.9 |
| 20260505095443 | 8 | 119 | 0.0 | 0.0 | 0.00 | 0.00 | 0.00 | 93 | 1013.9 |
| 20260505095433 | 8 | 120 | 0.0 | 0.0 | 0.00 | 0.00 | 0.00 | 93 | 1013.9 |
| 20260505095334 | 8 | 120 | 0.0 | 0.0 | 0.00 | 0.00 | 0.00 | 93 | 1014.0 |
| 20260505095235 | 8 | 119 | 0.0 | 0.0 | 0.00 | 0.00 | 0.00 | 93 | 1014.0 |
| 20260505095134 | 8 | 119 | 0.0 | 0.0 | 0.00 | 0.00 | 0.00 | 93 | 1014.0 |
| 20260505095055 | 8 | 119 | 0.0 | 0.0 | 0.00 | 0.00 | 0.00 | 93 | 1014.0 |
| 20260505095039 | 8 | 119 | 0.0 | 0.0 | 0.00 | 0.00 | 0.00 | 93 | 1014.1 |
| 20260505094833 | 8 | 119 | 0.0 | 0.0 | 0.00 | 0.00 | 0.00 | 93 | 1014.1 |
| 20260505094733 | 8 | 120 | 0.0 | 0.0 | 0.00 | 0.00 | 0.00 | 93 | 1014.1 |
| 20260505094634 | 8 | 120 | 0.0 | 0.0 | 0.00 | 0.00 | 0.00 | 93 | 1014.1 |
| 20260505094533 | 8 | 119 | 0.0 | 0.0 | 0.00 | 0.00 | 0.00 | 93 | 1014.1 |
| 20260505094434 | 8 | 120 | 0.0 | 0.0 | 0.00 | 0.00 | 0.00 | 93 | 1014.1 |
| 20260505094333 | 8 | 119 | 0.0 | 0.0 | 0.00 | 0.00 | 0.00 | 93 | 1014.2 |
| 20260505094233 | 8 | 119 | 0.0 | 0.0 | 0.00 | 0.00 | 0.00 | 93 | 1014.2 |
| 20260505094159 | 8 | 119 | 0.0 | 0.0 | 0.00 | 0.00 | 0.00 | 93 | 1014.3 |
| 20260505094150 | 8 | 119 | 0.0 | 0.0 | 0.00 | 0.00 | 0.00 | 93 | 1014.2 |
| 20260505094006 | 8 | 119 | 0.0 | 0.0 | 0.00 | 0.00 | 0.00 | 93 | 1014.3 |
| 20260505093950 | 8 | 119 | 0.0 | 0.0 | 0.00 | 0.00 | 0.00 | 93 | 1014.2 |
| 20260505093735 | 8 | 119 | 0.0 | 0.0 | 0.00 | 0.00 | 0.00 | 93 | 1014.2 |
| 20260505093633 | 8 | 120 | 0.0 | 0.0 | 0.00 | 0.00 | 0.00 | 93 | 1014.3 |
| 20260505093533 | 8 | 120 | 0.0 | 0.0 | 0.00 | 0.00 | 0.00 | 93 | 1014.3 |
| 20260505093508 | 8 | 119 | 0.0 | 0.0 | 0.00 | 0.00 | 0.00 | 93 | 1014.4 |
| 20260505093456 | 8 | 119 | 0.0 | 0.0 | 0.00 | 0.00 | 0.00 | 93 | 1014.3 |
| 20260505093450 | 8 | 120 | 0.0 | 0.0 | 0.00 | 0.00 | 0.00 | 93 | 1014.3 |
| 20260505093259 | 8 | 120 | 0.0 | 0.0 | 0.00 | 0.00 | 0.00 | 93 | 1014.3 |
| 20260505093250 | 8 | 120 | 0.0 | 0.0 | 0.00 | 0.00 | 0.00 | 93 | 1014.4 |
| 20260505093033 | 8 | 120 | 0.0 | 0.0 | 0.00 | 0.00 | 0.00 | 93 | 1014.3 |
| 20260505092943 | 8 | 120 | 0.0 | 0.0 | 0.00 | 0.00 | 0.00 | 93 | 1014.2 |
| 20260505092932 | 8 | 119 | 0.0 | 0.0 | 0.00 | 0.00 | 0.00 | 93 | 1014.2 |
| 20260505092924 | 8 | 120 | 0.0 | 0.0 | 0.00 | 0.00 | 0.00 | 93 | 1014.2 |
| 20260505092919 | 8 | 120 | 0.0 | 0.0 | 0.00 | 0.00 | 0.00 | 93 | 1014.2 |
| 20260505092908 | 8 | 119 | 0.0 | 0.0 | 0.00 | 0.00 | 0.00 | 93 | 1014.2 |
| 20260505092534 | 8 | 119 | 0.0 | 0.0 | 0.00 | 0.00 | 0.00 | 93 | 1014.1 |
| 20260505092434 | 8 | 119 | 0.0 | 0.0 | 0.00 | 0.00 | 0.00 | 93 | 1014.1 |
| 20260505092333 | 8 | 120 | 0.0 | 0.0 | 0.00 | 0.00 | 0.00 | 93 | 1014.1 |
| 20260505092233 | 8 | 120 | 0.0 | 0.0 | 0.00 | 0.00 | 0.00 | 93 | 1014.1 |
| 20260505092133 | 8 | 119 | 0.0 | 0.0 | 0.00 | 0.00 | 0.00 | 93 | 1014.1 |
| 20260505092034 | 8 | 119 | 0.0 | 0.0 | 0.00 | 0.00 | 0.00 | 93 | 1014.1 |
| 20260505091944 | 8 | 119 | 0.0 | 0.0 | 0.00 | 0.00 | 0.00 | 93 | 1014.0 |
| 20260505091933 | 8 | 120 | 0.0 | 0.0 | 0.00 | 0.00 | 0.00 | 93 | 1014.0 |
| 20260505091833 | 8 | 120 | 0.0 | 0.0 | 0.00 | 0.00 | 0.00 | 93 | 1014.1 |
| 20260505091733 | 8 | 119 | 0.0 | 0.0 | 0.00 | 0.00 | 0.00 | 93 | 1014.1 |
| 20260505091659 | 8 | 120 | 0.0 | 0.0 | 0.00 | 0.00 | 0.00 | 93 | 1013.9 |
| 20260505091649 | 8 | 119 | 0.0 | 0.0 | 0.00 | 0.00 | 0.00 | 93 | 1014.0 |
| 20260505091442 | 8 | 120 | 0.0 | 0.0 | 0.00 | 0.00 | 0.00 | 93 | 1013.9 |
| 20260505091433 | 8 | 119 | 0.0 | 0.0 | 0.00 | 0.00 | 0.00 | 93 | 1013.9 |
| 20260505091333 | 8 | 120 | 0.0 | 0.0 | 0.00 | 0.00 | 0.00 | 93 | 1013.8 |
| 20260505091233 | 8 | 119 | 0.0 | 0.0 | 0.00 | 0.00 | 0.00 | 92 | 1013.9 |
| 20260505091159 | 8 | 120 | 0.0 | 0.0 | 0.00 | 0.00 | 0.00 | 92 | 1014.0 |
| 20260505091149 | 8 | 119 | 0.0 | 0.0 | 0.00 | 0.00 | 0.00 | 92 | 1014.0 |
| 20260505090944 | 8 | 120 | 0.0 | 0.0 | 0.00 | 0.00 | 0.00 | 92 | 1014.0 |
| 20260505090933 | 8 | 119 | 0.0 | 0.0 | 0.00 | 0.00 | 0.00 | 92 | 1014.0 |
| 20260505090833 | 8 | 119 | 0.0 | 0.0 | 0.00 | 0.00 | 0.00 | 92 | 1013.9 |
| 20260505090733 | 8 | 120 | 0.0 | 0.0 | 0.00 | 0.00 | 0.00 | 92 | 1013.9 |
| 20260505090634 | 8 | 119 | 0.0 | 0.0 | 0.00 | 0.00 | 0.00 | 92 | 1013.9 |
| 20260505090533 | 8 | 119 | 0.0 | 0.0 | 0.00 | 0.00 | 0.00 | 92 | 1013.9 |
| 20260505090443 | 8 | 119 | 0.0 | 0.0 | 0.00 | 0.00 | 0.00 | 92 | 1013.9 |
| 20260505090433 | 8 | 120 | 0.0 | 0.0 | 0.00 | 0.00 | 0.00 | 92 | 1013.9 |
| 20260505090334 | 8 | 120 | 0.0 | 0.0 | 0.00 | 0.00 | 0.00 | 92 | 1013.9 |
| 20260505090301 | 8 | 120 | 0.0 | 0.0 | 0.00 | 0.00 | 0.00 | 92 | 1014.0 |
| 20260505090252 | 8 | 119 | 0.0 | 0.0 | 0.00 | 0.00 | 0.00 | 92 | 1014.0 |
| 20260505090032 | 8 | 119 | 0.0 | 0.0 | 0.00 | 0.00 | 0.00 | 92 | 1014.0 |
| 20260505090004 | 8 | 119 | 0.0 | 0.0 | 0.00 | 0.00 | 0.00 | 92 | 1014.0 |
| 20260505085955 | 8 | 120 | 0.0 | 0.0 | 0.00 | 0.00 | 0.00 | 92 | 1014.0 |
| 20260505085949 | 8 | 119 | 0.0 | 0.0 | 0.00 | 0.00 | 0.00 | 92 | 1014.0 |
| 20260505085733 | 8 | 120 | 0.0 | 0.0 | 0.00 | 0.00 | 0.00 | 92 | 1014.1 |
| 20260505085634 | 8 | 119 | 0.0 | 0.0 | 0.00 | 0.00 | 0.00 | 92 | 1014.1 |
| 20260505085533 | 8 | 119 | 0.0 | 0.0 | 0.00 | 0.00 | 0.00 | 92 | 1014.1 |
| 20260505085434 | 8 | 120 | 0.0 | 0.0 | 0.00 | 0.00 | 0.00 | 92 | 1014.1 |
| 20260505085334 | 8 | 119 | 0.0 | 0.0 | 0.00 | 0.00 | 0.00 | 92 | 1014.2 |
| 20260505085300 | 8 | 119 | 0.0 | 0.0 | 0.00 | 0.00 | 0.00 | 92 | 1014.2 |
| 20260505085252 | 8 | 119 | 0.0 | 0.0 | 0.00 | 0.00 | 0.00 | 92 | 1014.2 |
| 20260505085056 | 8 | 120 | 0.0 | 0.0 | 0.00 | 0.00 | 0.00 | 92 | 1014.2 |
| 20260505085041 | 8 | 119 | 0.0 | 0.0 | 0.00 | 0.00 | 0.00 | 92 | 1014.3 |
| 20260505084833 | 8 | 119 | 0.0 | 0.0 | 0.00 | 0.00 | 0.00 | 92 | 1014.2 |
| 20260505084733 | 8 | 119 | 0.0 | 0.0 | 0.00 | 0.00 | 0.00 | 92 | 1014.2 |
| 20260505084633 | 8 | 120 | 0.0 | 0.0 | 0.00 | 0.00 | 0.00 | 92 | 1014.3 |
| 20260505084534 | 8 | 120 | 0.0 | 0.0 | 0.00 | 0.00 | 0.00 | 92 | 1014.2 |
| 20260505084506 | 8 | 120 | 0.0 | 0.0 | 0.00 | 0.00 | 0.00 | 92 | 1014.3 |
| 20260505084456 | 8 | 120 | 0.0 | 0.0 | 0.00 | 0.00 | 0.00 | 92 | 1014.2 |
| 20260505084450 | 8 | 119 | 0.0 | 0.0 | 0.00 | 0.00 | 0.00 | 92 | 1014.2 |
| 20260505084233 | 8 | 119 | 0.0 | 0.0 | 0.00 | 0.00 | 0.00 | 92 | 1014.3 |
| 20260505084132 | 8 | 119 | 0.0 | 1.6 | 0.00 | 0.00 | 0.00 | 92 | 1014.3 |
| 20260505084034 | 8 | 120 | 0.0 | 1.6 | 0.00 | 0.00 | 0.00 | 92 | 1014.3 |
| 20260505083943 | 8 | 119 | 0.0 | 1.6 | 0.00 | 0.00 | 0.00 | 92 | 1014.3 |
| 20260505083934 | 8 | 120 | 0.0 | 1.6 | 0.00 | 0.00 | 0.00 | 92 | 1014.3 |
| 20260505083835 | 8 | 119 | 0.0 | 1.6 | 0.00 | 0.00 | 0.00 | 92 | 1014.3 |
| 20260505083758 | 8 | 119 | 0.0 | 1.6 | 0.00 | 0.00 | 0.00 | 92 | 1014.3 |
| 20260505083750 | 8 | 120 | 0.0 | 1.6 | 0.00 | 0.00 | 0.00 | 92 | 1014.3 |
| 20260505083534 | 8 | 119 | 0.0 | 1.6 | 0.00 | 0.00 | 0.00 | 92 | 1014.4 |
| 20260505083433 | 8 | 120 | 0.0 | 1.6 | 0.00 | 0.00 | 0.00 | 92 | 1014.3 |
| 20260505083333 | 8 | 119 | 0.0 | 1.6 | 0.00 | 0.00 | 0.00 | 92 | 1014.4 |
| 20260505083234 | 8 | 119 | 0.0 | 1.6 | 0.00 | 0.00 | 0.00 | 92 | 1014.4 |
| 20260505083157 | 8 | 119 | 0.0 | 0.0 | 0.00 | 0.00 | 0.00 | 92 | 1014.4 |
| 20260505083146 | 8 | 120 | 0.0 | 0.0 | 0.00 | 0.00 | 0.00 | 92 | 1014.4 |
| 20260505082949 | 8 | 120 | 0.0 | 0.0 | 0.00 | 0.00 | 0.00 | 92 | 1014.4 |
| 20260505082929 | 8 | 119 | 0.0 | 0.0 | 0.00 | 0.00 | 0.00 | 92 | 1014.3 |
| 20260505082827 | 8 | 120 | 0.0 | 0.0 | 0.00 | 0.00 | 0.00 | 92 | 1014.3 |
| 20260505082725 | 8 | 120 | 0.0 | 0.0 | 0.00 | 0.00 | 0.00 | 92 | 1014.4 |
| 20260505082625 | 8 | 119 | 0.0 | 0.0 | 0.00 | 0.00 | 0.00 | 92 | 1014.3 |
| 20260505082557 | 8 | 119 | 0.0 | 0.0 | 0.00 | 0.00 | 0.00 | 92 | 1014.3 |
| 20260505082425 | 8 | 119 | 0.0 | 0.0 | 0.00 | 0.00 | 0.00 | 92 | 1014.4 |
| 20260505082324 | 8 | 119 | 0.0 | 0.0 | 0.00 | 0.00 | 0.00 | 92 | 1014.3 |
| 20260505082225 | 9 | 120 | 0.0 | 0.0 | 0.00 | 0.00 | 0.00 | 92 | 1014.3 |
| 20260505082150 | 9 | 120 | 0.0 | 0.0 | 0.00 | 0.00 | 0.00 | 92 | 1014.2 |
| 20260505082140 | 9 | 119 | 0.0 | 0.0 | 0.00 | 0.00 | 0.00 | 92 | 1014.3 |
| 20260505081943 | 9 | 120 | 0.0 | 0.0 | 0.00 | 0.00 | 0.00 | 92 | 1014.2 |
| 20260505081923 | 9 | 120 | 0.0 | 0.0 | 0.00 | 0.00 | 0.00 | 92 | 1014.3 |
| 20260505081824 | 9 | 120 | 0.0 | 0.0 | 0.00 | 0.00 | 0.00 | 92 | 1014.2 |
| 20260505081723 | 9 | 120 | 0.0 | 0.0 | 0.00 | 0.00 | 0.00 | 92 | 1014.2 |
| 20260505081624 | 9 | 119 | 0.0 | 0.0 | 0.00 | 0.00 | 0.00 | 92 | 1014.2 |
| 20260505081523 | 9 | 120 | 0.0 | 0.0 | 0.00 | 0.00 | 0.00 | 92 | 1014.2 |
| 20260505081454 | 9 | 120 | 0.0 | 0.0 | 0.00 | 0.00 | 0.00 | 92 | 1014.2 |
| 20260505081446 | 9 | 120 | 0.0 | 0.0 | 0.00 | 0.00 | 0.00 | 92 | 1014.2 |
| 20260505081438 | 9 | 119 | 0.0 | 0.0 | 0.00 | 0.00 | 0.00 | 92 | 1014.2 |
| 20260505081222 | 9 | 119 | 0.0 | 0.0 | 0.00 | 0.00 | 0.00 | 92 | 1014.2 |
| 20260505081121 | 9 | 120 | 0.0 | 0.0 | 0.00 | 0.00 | 0.00 | 92 | 1014.3 |
| 20260505081022 | 9 | 119 | 0.0 | 0.0 | 0.00 | 0.00 | 0.00 | 92 | 1014.2 |
| 20260505080919 | 9 | 120 | 0.0 | 0.0 | 0.00 | 0.00 | 0.00 | 92 | 1014.2 |
| 20260505080820 | 9 | 120 | 0.0 | 0.0 | 0.00 | 0.00 | 0.00 | 92 | 1014.2 |
| 20260505080719 | 9 | 120 | 0.0 | 0.0 | 0.00 | 0.00 | 0.00 | 92 | 1014.2 |
| 20260505080645 | 9 | 119 | 0.0 | 0.0 | 0.00 | 0.00 | 0.00 | 91 | 1014.2 |
| 20260505080635 | 9 | 119 | 0.0 | 0.0 | 0.00 | 0.00 | 0.00 | 92 | 1014.1 |
| 20260505080419 | 9 | 120 | 0.0 | 0.0 | 0.00 | 0.00 | 0.00 | 91 | 1014.2 |
| 20260505080318 | 9 | 120 | 0.0 | 0.0 | 0.00 | 0.00 | 0.00 | 91 | 1014.2 |
| 20260505080215 | 9 | 120 | 0.0 | 0.0 | 0.00 | 0.00 | 0.00 | 91 | 1014.2 |
| 20260505080114 | 9 | 120 | 0.0 | 0.0 | 0.00 | 0.00 | 0.00 | 91 | 1014.2 |
| 20260505080014 | 9 | 120 | 0.0 | 0.0 | 0.00 | 0.00 | 0.00 | 91 | 1014.2 |
| 20260505075915 | 9 | 119 | 0.0 | 0.0 | 0.00 | 0.00 | 0.00 | 91 | 1014.2 |
| 20260505075814 | 9 | 120 | 0.0 | 0.0 | 0.00 | 0.00 | 0.00 | 91 | 1014.2 |
| 20260505075713 | 9 | 119 | 0.0 | 0.0 | 0.00 | 0.00 | 0.00 | 91 | 1014.2 |
| 20260505075612 | 9 | 120 | 0.0 | 0.0 | 0.00 | 0.00 | 0.00 | 91 | 1014.2 |
| 20260505075510 | 9 | 120 | 0.0 | 0.0 | 0.00 | 0.00 | 0.00 | 91 | 1014.2 |
| 20260505075442 | 9 | 120 | 0.0 | 0.0 | 0.00 | 0.00 | 0.00 | 91 | 1014.2 |
| 20260505075434 | 9 | 120 | 0.0 | 0.0 | 0.00 | 0.00 | 0.00 | 91 | 1014.2 |
| 20260505075426 | 9 | 119 | 0.0 | 0.0 | 0.00 | 0.00 | 0.00 | 91 | 1014.2 |
| 20260505075209 | 9 | 119 | 0.0 | 0.0 | 0.00 | 0.00 | 0.00 | 91 | 1014.2 |
| 20260505075135 | 9 | 120 | 0.0 | 0.0 | 0.00 | 0.00 | 0.00 | 91 | 1014.1 |
| 20260505075126 | 9 | 120 | 0.0 | 0.0 | 0.00 | 0.00 | 0.00 | 91 | 1014.2 |
| 20260505074943 | 9 | 119 | 0.0 | 0.0 | 0.00 | 0.00 | 0.00 | 91 | 1014.1 |
| 20260505074909 | 9 | 119 | 0.0 | 0.0 | 0.00 | 0.00 | 0.00 | 91 | 1014.1 |
| 20260505074809 | 9 | 120 | 0.0 | 0.0 | 0.00 | 0.00 | 0.00 | 91 | 1014.2 |
| 20260505074709 | 9 | 120 | 0.0 | 0.0 | 0.00 | 0.00 | 0.00 | 91 | 1014.2 |
| 20260505074608 | 9 | 119 | 0.0 | 0.0 | 0.00 | 0.00 | 0.00 | 91 | 1014.1 |
| 20260505074508 | 9 | 119 | 0.0 | 0.0 | 0.00 | 0.00 | 0.00 | 91 | 1014.1 |
| 20260505074441 | 9 | 119 | 0.0 | 0.0 | 0.00 | 0.00 | 0.00 | 91 | 1014.1 |
| 20260505074406 | 9 | 120 | 0.0 | 0.0 | 0.00 | 0.00 | 0.00 | 91 | 1014.0 |
| 20260505074330 | 9 | 120 | 0.0 | 0.0 | 0.00 | 0.00 | 0.00 | 91 | 1014.1 |
| 20260505074322 | 9 | 119 | 0.0 | 0.0 | 0.00 | 0.00 | 0.00 | 91 | 1014.1 |
| 20260505074140 | 9 | 119 | 0.0 | 0.0 | 0.00 | 0.00 | 0.00 | 91 | 1014.2 |
| 20260505074132 | 9 | 120 | 0.0 | 0.0 | 0.00 | 0.00 | 0.00 | 91 | 1014.1 |
| 20260505074121 | 9 | 119 | 0.0 | 0.0 | 0.00 | 0.00 | 0.00 | 91 | 1014.1 |
| 20260505073956 | 9 | 119 | 0.0 | 0.0 | 0.00 | 0.00 | 0.00 | 91 | 1014.2 |
| 20260505073951 | 9 | 120 | 0.0 | 0.0 | 0.00 | 0.00 | 0.00 | 91 | 1014.1 |
| 20260505073943 | 9 | 119 | 0.0 | 0.0 | 0.00 | 0.00 | 0.00 | 91 | 1014.1 |
| 20260505073933 | 9 | 120 | 0.0 | 0.0 | 0.00 | 0.00 | 0.00 | 91 | 1014.1 |
| 20260505073800 | 9 | 120 | 0.0 | 0.0 | 0.00 | 0.00 | 0.00 | 91 | 1014.2 |
| 20260505073636 | 9 | 120 | 0.0 | 0.0 | 0.00 | 0.00 | 0.00 | 91 | 1014.2 |
| 20260505073509 | 9 | 120 | 0.0 | 0.0 | 0.00 | 0.00 | 0.00 | 91 | 1014.1 |
| 20260505073257 | 9 | 119 | 0.0 | 0.0 | 0.00 | 0.00 | 0.00 | 91 | 1014.1 |
| 20260505073158 | 9 | 119 | 0.0 | 0.0 | 0.00 | 0.00 | 0.00 | 91 | 1014.1 |
| 20260505073127 | 10 | 119 | 0.0 | 1.6 | 0.00 | 0.00 | 0.00 | 91 | 1014.2 |
| 20260505073116 | 9 | 119 | 0.0 | 0.0 | 0.00 | 0.00 | 0.00 | 91 | 1014.1 |
| 20260505073059 | 10 | 120 | 0.0 | 0.0 | 0.00 | 0.00 | 0.00 | 91 | 1014.1 |
| 20260505072944 | 10 | 120 | 0.0 | 0.0 | 0.00 | 0.00 | 0.00 | 91 | 1014.1 |
| 20260505072939 | 10 | 119 | 0.0 | 1.6 | 0.00 | 0.00 | 0.00 | 91 | 1014.2 |
| 20260505072928 | 10 | 119 | 0.0 | 0.0 | 0.00 | 0.00 | 0.00 | 91 | 1014.2 |
| 20260505072555 | 10 | 119 | 0.0 | 1.6 | 0.00 | 0.00 | 0.00 | 91 | 1014.3 |
| 20260505072441 | 10 | 120 | 0.0 | 1.6 | 0.00 | 0.00 | 0.00 | 91 | 1014.3 |
| 20260505072355 | 10 | 120 | 0.0 | 1.6 | 0.00 | 0.00 | 0.00 | 91 | 1014.3 |
| 20260505072256 | 10 | 120 | 0.0 | 1.6 | 0.00 | 0.00 | 0.00 | 91 | 1014.3 |
| 20260505072155 | 10 | 119 | 0.0 | 1.6 | 0.00 | 0.00 | 0.00 | 91 | 1014.3 |
| 20260505072055 | 10 | 120 | 0.0 | 1.6 | 0.00 | 0.00 | 0.00 | 91 | 1014.3 |
| 20260505071955 | 10 | 119 | 0.0 | 1.6 | 0.00 | 0.00 | 0.00 | 91 | 1014.3 |
| 20260505071940 | 10 | 120 | 0.0 | 1.6 | 0.00 | 0.00 | 0.00 | 91 | 1014.3 |
| 20260505071854 | 10 | 120 | 0.0 | 1.6 | 0.00 | 0.00 | 0.00 | 91 | 1014.3 |
| 20260505071753 | 10 | 119 | 0.0 | 0.0 | 0.00 | 0.00 | 0.00 | 91 | 1014.3 |
| 20260505071650 | 10 | 119 | 0.0 | 0.0 | 0.00 | 0.00 | 0.00 | 91 | 1014.3 |
| 20260505071550 | 10 | 157 | 0.0 | 0.0 | 0.00 | 0.00 | 0.00 | 91 | 1014.3 |
| 20260505071452 | 10 | 156 | 0.0 | 0.0 | 0.00 | 0.00 | 0.00 | 91 | 1014.3 |
| 20260505071442 | 10 | 157 | 0.0 | 0.0 | 0.00 | 0.00 | 0.00 | 91 | 1014.3 |
| 20260505071350 | 10 | 157 | 0.0 | 0.0 | 0.00 | 0.00 | 0.00 | 91 | 1014.3 |
| 20260505071249 | 10 | 157 | 0.0 | 0.0 | 0.00 | 0.00 | 0.00 | 91 | 1014.2 |
| 20260505071148 | 10 | 157 | 0.0 | 0.0 | 0.00 | 0.00 | 0.00 | 91 | 1014.3 |
| 20260505071048 | 10 | 157 | 0.0 | 0.0 | 0.00 | 0.00 | 0.00 | 91 | 1014.2 |
| 20260505070949 | 10 | 156 | 0.0 | 0.0 | 0.00 | 0.00 | 0.00 | 91 | 1014.2 |
| 20260505070940 | 10 | 157 | 0.0 | 0.0 | 0.00 | 0.00 | 0.00 | 91 | 1014.2 |
| 20260505070845 | 10 | 157 | 0.0 | 0.0 | 0.00 | 0.00 | 0.00 | 91 | 1014.3 |
| 20260505070745 | 10 | 157 | 0.0 | 0.0 | 0.00 | 0.00 | 0.00 | 91 | 1014.3 |
| 20260505070642 | 10 | 157 | 0.0 | 0.0 | 0.00 | 0.00 | 0.00 | 91 | 1014.3 |